<?xml version="1.0" encoding="UTF-8" standalone="no" ?>
<gpx xmlns="http://www.topografix.com/GPX/1/1" xmlns:xsi="http://www.w3.org/2001/XMLSchema-instance" xsi:schemaLocation="http://www.topografix.com/GPX/1/1 http://www.topografix.com/GPX/1/1/gpx.xsd" version="1.1" creator="VisuGPX - https://www.visugpx.com">
  <metadata>
    <name>RRaTT - 18 janvier 2012</name>
    <desc><![CDATA[Première sortie du Lapierre tout neuf de Nico !]]></desc>
  </metadata>
  <trk>
    <name><![CDATA[RRaTT]]></name>
    <cmt><![CDATA[Baladounette du midi avec Nico (qui teste son cadeau de Noël) et Stef.
Tour pas très long, vitesse réduite, mais c'est toujours bon de rouler un peu avant une soirée d'intervention...]]></cmt>
    <trkseg>
      <trkpt lat="43.61526" lon="7.08624">
        <ele>109.95361328125</ele>
        <time>2012-01-18T11:24:19Z</time>
      </trkpt>
      <trkpt lat="43.61525" lon="7.08627">
        <ele>109.88494873047</ele>
        <time>2012-01-18T11:24:22Z</time>
      </trkpt>
      <trkpt lat="43.61515" lon="7.08635">
        <ele>109.54162597656</ele>
        <time>2012-01-18T11:24:25Z</time>
      </trkpt>
      <trkpt lat="43.61495" lon="7.08635">
        <ele>108.82751464844</ele>
        <time>2012-01-18T11:24:29Z</time>
      </trkpt>
      <trkpt lat="43.61488" lon="7.08626">
        <ele>108.56658935547</ele>
        <time>2012-01-18T11:24:33Z</time>
      </trkpt>
      <trkpt lat="43.61486" lon="7.08625">
        <ele>108.49792480469</ele>
        <time>2012-01-18T11:24:34Z</time>
      </trkpt>
      <trkpt lat="43.61478" lon="7.08633">
        <ele>108.22326660156</ele>
        <time>2012-01-18T11:24:37Z</time>
      </trkpt>
      <trkpt lat="43.61477" lon="7.08636">
        <ele>108.15460205078</ele>
        <time>2012-01-18T11:24:38Z</time>
      </trkpt>
      <trkpt lat="43.61469" lon="7.08641">
        <ele>107.834815979</ele>
        <time>2012-01-18T11:24:41Z</time>
      </trkpt>
      <trkpt lat="43.61467" lon="7.08639">
        <ele>107.81127929688</ele>
        <time>2012-01-18T11:24:42Z</time>
      </trkpt>
      <trkpt lat="43.61468" lon="7.08629">
        <ele>107.83874511719</ele>
        <time>2012-01-18T11:24:45Z</time>
      </trkpt>
      <trkpt lat="43.61471" lon="7.08621">
        <ele>107.94860839844</ele>
        <time>2012-01-18T11:24:47Z</time>
      </trkpt>
      <trkpt lat="43.61475" lon="7.08607">
        <ele>108.22341918945</ele>
        <time>2012-01-18T11:24:51Z</time>
      </trkpt>
      <trkpt lat="43.61485" lon="7.0858">
        <ele>109.52823638916</ele>
        <time>2012-01-18T11:24:59Z</time>
      </trkpt>
      <trkpt lat="43.61491" lon="7.0856">
        <ele>110.22306060791</ele>
        <time>2012-01-18T11:25:04Z</time>
      </trkpt>
      <trkpt lat="43.61492" lon="7.08556">
        <ele>110.42176055908</ele>
        <time>2012-01-18T11:25:05Z</time>
      </trkpt>
      <trkpt lat="43.61498" lon="7.08543">
        <ele>110.84729003906</ele>
        <time>2012-01-18T11:25:08Z</time>
      </trkpt>
      <trkpt lat="43.61503" lon="7.08523">
        <ele>111.35917663574</ele>
        <time>2012-01-18T11:25:11Z</time>
      </trkpt>
      <trkpt lat="43.61505" lon="7.08515">
        <ele>111.73091125488</ele>
        <time>2012-01-18T11:25:12Z</time>
      </trkpt>
      <trkpt lat="43.61506" lon="7.08496">
        <ele>112.37326049805</ele>
        <time>2012-01-18T11:25:14Z</time>
      </trkpt>
      <trkpt lat="43.61508" lon="7.08474">
        <ele>113.21611785889</ele>
        <time>2012-01-18T11:25:16Z</time>
      </trkpt>
      <trkpt lat="43.61513" lon="7.08427">
        <ele>114.55675506592</ele>
        <time>2012-01-18T11:25:20Z</time>
      </trkpt>
      <trkpt lat="43.61515" lon="7.08419">
        <ele>115.01509094238</ele>
        <time>2012-01-18T11:25:21Z</time>
      </trkpt>
      <trkpt lat="43.61531" lon="7.08399">
        <ele>116.13214111328</ele>
        <time>2012-01-18T11:25:24Z</time>
      </trkpt>
      <trkpt lat="43.61535" lon="7.08394">
        <ele>116.26947021484</ele>
        <time>2012-01-18T11:25:25Z</time>
      </trkpt>
      <trkpt lat="43.61544" lon="7.08384">
        <ele>116.78231048584</ele>
        <time>2012-01-18T11:25:28Z</time>
      </trkpt>
      <trkpt lat="43.6155" lon="7.0838">
        <ele>117.11190032959</ele>
        <time>2012-01-18T11:25:31Z</time>
      </trkpt>
      <trkpt lat="43.61552" lon="7.08377">
        <ele>117.28184509277</ele>
        <time>2012-01-18T11:25:32Z</time>
      </trkpt>
      <trkpt lat="43.61562" lon="7.08356">
        <ele>118.18575286865</ele>
        <time>2012-01-18T11:25:38Z</time>
      </trkpt>
      <trkpt lat="43.61565" lon="7.08343">
        <ele>118.64580535889</ele>
        <time>2012-01-18T11:25:43Z</time>
      </trkpt>
      <trkpt lat="43.61565" lon="7.08342">
        <ele>118.68357086182</ele>
        <time>2012-01-18T11:25:44Z</time>
      </trkpt>
      <trkpt lat="43.61566" lon="7.08342">
        <ele>118.69387054443</ele>
        <time>2012-01-18T11:25:47Z</time>
      </trkpt>
      <trkpt lat="43.61567" lon="7.0835">
        <ele>118.40204620361</ele>
        <time>2012-01-18T11:26:04Z</time>
      </trkpt>
      <trkpt lat="43.6156" lon="7.08351">
        <ele>118.37286376953</ele>
        <time>2012-01-18T11:26:07Z</time>
      </trkpt>
      <trkpt lat="43.61546" lon="7.08357">
        <ele>117.82772827148</ele>
        <time>2012-01-18T11:26:10Z</time>
      </trkpt>
      <trkpt lat="43.6153" lon="7.08368">
        <ele>116.80119323731</ele>
        <time>2012-01-18T11:26:13Z</time>
      </trkpt>
      <trkpt lat="43.61523" lon="7.08373">
        <ele>116.28815460205</ele>
        <time>2012-01-18T11:26:14Z</time>
      </trkpt>
      <trkpt lat="43.61503" lon="7.08388">
        <ele>115.1054611206</ele>
        <time>2012-01-18T11:26:17Z</time>
      </trkpt>
      <trkpt lat="43.61491" lon="7.08399">
        <ele>109.99948120117</ele>
        <time>2012-01-18T11:26:19Z</time>
      </trkpt>
      <trkpt lat="43.61483" lon="7.0841">
        <ele>105.36031341553</ele>
        <time>2012-01-18T11:26:21Z</time>
      </trkpt>
      <trkpt lat="43.61473" lon="7.08417">
        <ele>99.670799255371</ele>
        <time>2012-01-18T11:26:24Z</time>
      </trkpt>
      <trkpt lat="43.61462" lon="7.08423">
        <ele>97.977500915527</ele>
        <time>2012-01-18T11:26:28Z</time>
      </trkpt>
      <trkpt lat="43.61453" lon="7.08416">
        <ele>97.024291992188</ele>
        <time>2012-01-18T11:26:31Z</time>
      </trkpt>
      <trkpt lat="43.61449" lon="7.08414">
        <ele>96.761650085449</ele>
        <time>2012-01-18T11:26:32Z</time>
      </trkpt>
      <trkpt lat="43.61437" lon="7.08415">
        <ele>94.86515045166</ele>
        <time>2012-01-18T11:26:36Z</time>
      </trkpt>
      <trkpt lat="43.61418" lon="7.08415">
        <ele>91.416473388672</ele>
        <time>2012-01-18T11:26:41Z</time>
      </trkpt>
      <trkpt lat="43.61398" lon="7.08408">
        <ele>89.285903930664</ele>
        <time>2012-01-18T11:26:46Z</time>
      </trkpt>
      <trkpt lat="43.61379" lon="7.08403">
        <ele>86.74821472168</ele>
        <time>2012-01-18T11:26:50Z</time>
      </trkpt>
      <trkpt lat="43.6137" lon="7.08401">
        <ele>85.201545715332</ele>
        <time>2012-01-18T11:26:52Z</time>
      </trkpt>
      <trkpt lat="43.61354" lon="7.08401">
        <ele>82.766006469727</ele>
        <time>2012-01-18T11:26:55Z</time>
      </trkpt>
      <trkpt lat="43.61349" lon="7.08401">
        <ele>82.12483215332</ele>
        <time>2012-01-18T11:26:56Z</time>
      </trkpt>
      <trkpt lat="43.61345" lon="7.084">
        <ele>81.518524169922</ele>
        <time>2012-01-18T11:26:57Z</time>
      </trkpt>
      <trkpt lat="43.61335" lon="7.08401">
        <ele>80.167488098145</ele>
        <time>2012-01-18T11:26:59Z</time>
      </trkpt>
      <trkpt lat="43.6133" lon="7.08404">
        <ele>79.9287109375</ele>
        <time>2012-01-18T11:27:00Z</time>
      </trkpt>
      <trkpt lat="43.61311" lon="7.08416">
        <ele>79.225341796875</ele>
        <time>2012-01-18T11:27:04Z</time>
      </trkpt>
      <trkpt lat="43.61306" lon="7.08419">
        <ele>79.029724121094</ele>
        <time>2012-01-18T11:27:05Z</time>
      </trkpt>
      <trkpt lat="43.61292" lon="7.0843">
        <ele>78.521606445312</ele>
        <time>2012-01-18T11:27:08Z</time>
      </trkpt>
      <trkpt lat="43.61287" lon="7.08442">
        <ele>78.343078613281</ele>
        <time>2012-01-18T11:27:10Z</time>
      </trkpt>
      <trkpt lat="43.61288" lon="7.08462">
        <ele>78.370544433594</ele>
        <time>2012-01-18T11:27:14Z</time>
      </trkpt>
      <trkpt lat="43.61291" lon="7.08475">
        <ele>78.624298095703</ele>
        <time>2012-01-18T11:27:17Z</time>
      </trkpt>
      <trkpt lat="43.61293" lon="7.08486">
        <ele>79.32453918457</ele>
        <time>2012-01-18T11:27:20Z</time>
      </trkpt>
      <trkpt lat="43.61296" lon="7.08503">
        <ele>80.658676147461</ele>
        <time>2012-01-18T11:27:25Z</time>
      </trkpt>
      <trkpt lat="43.61297" lon="7.08525">
        <ele>83.077728271484</ele>
        <time>2012-01-18T11:27:30Z</time>
      </trkpt>
      <trkpt lat="43.61295" lon="7.08547">
        <ele>84.693855285645</ele>
        <time>2012-01-18T11:27:36Z</time>
      </trkpt>
      <trkpt lat="43.61295" lon="7.08566">
        <ele>86.467056274414</ele>
        <time>2012-01-18T11:27:41Z</time>
      </trkpt>
      <trkpt lat="43.61292" lon="7.08587">
        <ele>87.85050201416</ele>
        <time>2012-01-18T11:27:47Z</time>
      </trkpt>
      <trkpt lat="43.61286" lon="7.08606">
        <ele>88.088417053223</ele>
        <time>2012-01-18T11:27:52Z</time>
      </trkpt>
      <trkpt lat="43.61283" lon="7.08637">
        <ele>88.394371032715</ele>
        <time>2012-01-18T11:27:55Z</time>
      </trkpt>
      <trkpt lat="43.61282" lon="7.08655">
        <ele>89.106689453125</ele>
        <time>2012-01-18T11:27:57Z</time>
      </trkpt>
      <trkpt lat="43.61284" lon="7.08676">
        <ele>91.047134399414</ele>
        <time>2012-01-18T11:27:59Z</time>
      </trkpt>
      <trkpt lat="43.61285" lon="7.08686">
        <ele>91.790969848633</ele>
        <time>2012-01-18T11:28:00Z</time>
      </trkpt>
      <trkpt lat="43.61289" lon="7.0872">
        <ele>94.861145019531</ele>
        <time>2012-01-18T11:28:04Z</time>
      </trkpt>
      <trkpt lat="43.6129" lon="7.08752">
        <ele>96.479156494141</ele>
        <time>2012-01-18T11:28:08Z</time>
      </trkpt>
      <trkpt lat="43.6129" lon="7.08767">
        <ele>97.191772460938</ele>
        <time>2012-01-18T11:28:10Z</time>
      </trkpt>
      <trkpt lat="43.6129" lon="7.08776">
        <ele>97.578758239746</ele>
        <time>2012-01-18T11:28:11Z</time>
      </trkpt>
      <trkpt lat="43.61291" lon="7.08805">
        <ele>97.418434143066</ele>
        <time>2012-01-18T11:28:14Z</time>
      </trkpt>
      <trkpt lat="43.61292" lon="7.08812">
        <ele>97.348159790039</ele>
        <time>2012-01-18T11:28:15Z</time>
      </trkpt>
      <trkpt lat="43.61296" lon="7.08825">
        <ele>98.133460998535</ele>
        <time>2012-01-18T11:28:17Z</time>
      </trkpt>
      <trkpt lat="43.61298" lon="7.08832">
        <ele>98.378890991211</ele>
        <time>2012-01-18T11:28:19Z</time>
      </trkpt>
      <trkpt lat="43.61298" lon="7.08832">
        <ele>98.378890991211</ele>
        <time>2012-01-18T11:28:20Z</time>
      </trkpt>
      <trkpt lat="43.61298" lon="7.08831">
        <ele>98.470390319824</ele>
        <time>2012-01-18T11:28:29Z</time>
      </trkpt>
      <trkpt lat="43.61292" lon="7.08842">
        <ele>96.806304931641</ele>
        <time>2012-01-18T11:29:14Z</time>
      </trkpt>
      <trkpt lat="43.6128" lon="7.08851">
        <ele>93.816314697266</ele>
        <time>2012-01-18T11:29:17Z</time>
      </trkpt>
      <trkpt lat="43.61265" lon="7.08843">
        <ele>88.675003051758</ele>
        <time>2012-01-18T11:29:20Z</time>
      </trkpt>
      <trkpt lat="43.61246" lon="7.08834">
        <ele>81.882415771484</ele>
        <time>2012-01-18T11:29:23Z</time>
      </trkpt>
      <trkpt lat="43.6124" lon="7.08833">
        <ele>80.230941772461</ele>
        <time>2012-01-18T11:29:24Z</time>
      </trkpt>
      <trkpt lat="43.61224" lon="7.08842">
        <ele>75.695297241211</ele>
        <time>2012-01-18T11:29:28Z</time>
      </trkpt>
      <trkpt lat="43.61216" lon="7.08863">
        <ele>72.26261138916</ele>
        <time>2012-01-18T11:29:32Z</time>
      </trkpt>
      <trkpt lat="43.61213" lon="7.08881">
        <ele>71.725288391113</ele>
        <time>2012-01-18T11:29:35Z</time>
      </trkpt>
      <trkpt lat="43.61211" lon="7.08887">
        <ele>71.014419555664</ele>
        <time>2012-01-18T11:29:36Z</time>
      </trkpt>
      <trkpt lat="43.6121" lon="7.08893">
        <ele>71.133087158203</ele>
        <time>2012-01-18T11:29:37Z</time>
      </trkpt>
      <trkpt lat="43.61203" lon="7.08918">
        <ele>71.551490783691</ele>
        <time>2012-01-18T11:29:41Z</time>
      </trkpt>
      <trkpt lat="43.61201" lon="7.08924">
        <ele>71.570411682129</ele>
        <time>2012-01-18T11:29:42Z</time>
      </trkpt>
      <trkpt lat="43.61198" lon="7.08935">
        <ele>71.923011779785</ele>
        <time>2012-01-18T11:29:44Z</time>
      </trkpt>
      <trkpt lat="43.61195" lon="7.08951">
        <ele>73.710655212402</ele>
        <time>2012-01-18T11:29:47Z</time>
      </trkpt>
      <trkpt lat="43.61194" lon="7.08961">
        <ele>75.448509216309</ele>
        <time>2012-01-18T11:29:49Z</time>
      </trkpt>
      <trkpt lat="43.61193" lon="7.08975">
        <ele>77.587867736816</ele>
        <time>2012-01-18T11:29:52Z</time>
      </trkpt>
      <trkpt lat="43.6119" lon="7.09005">
        <ele>79.442428588867</ele>
        <time>2012-01-18T11:29:59Z</time>
      </trkpt>
      <trkpt lat="43.61187" lon="7.09036">
        <ele>79.718170166016</ele>
        <time>2012-01-18T11:30:06Z</time>
      </trkpt>
      <trkpt lat="43.61183" lon="7.09078">
        <ele>80.938575744629</ele>
        <time>2012-01-18T11:30:14Z</time>
      </trkpt>
      <trkpt lat="43.61184" lon="7.0911">
        <ele>82.048202514648</ele>
        <time>2012-01-18T11:30:20Z</time>
      </trkpt>
      <trkpt lat="43.61189" lon="7.09139">
        <ele>80.998611450195</ele>
        <time>2012-01-18T11:30:26Z</time>
      </trkpt>
      <trkpt lat="43.61194" lon="7.09162">
        <ele>82.001113891602</ele>
        <time>2012-01-18T11:30:31Z</time>
      </trkpt>
      <trkpt lat="43.61202" lon="7.09181">
        <ele>84.764228820801</ele>
        <time>2012-01-18T11:30:36Z</time>
      </trkpt>
      <trkpt lat="43.61212" lon="7.09208">
        <ele>84.986206054688</ele>
        <time>2012-01-18T11:30:43Z</time>
      </trkpt>
      <trkpt lat="43.61221" lon="7.09233">
        <ele>83.955879211426</ele>
        <time>2012-01-18T11:30:49Z</time>
      </trkpt>
      <trkpt lat="43.61229" lon="7.09253">
        <ele>85.819686889648</ele>
        <time>2012-01-18T11:30:54Z</time>
      </trkpt>
      <trkpt lat="43.61234" lon="7.09269">
        <ele>85.825859069824</ele>
        <time>2012-01-18T11:30:58Z</time>
      </trkpt>
      <trkpt lat="43.61242" lon="7.0929">
        <ele>85.645210266113</ele>
        <time>2012-01-18T11:31:03Z</time>
      </trkpt>
      <trkpt lat="43.61253" lon="7.09313">
        <ele>86.899856567383</ele>
        <time>2012-01-18T11:31:07Z</time>
      </trkpt>
      <trkpt lat="43.61258" lon="7.0932">
        <ele>87.17147064209</ele>
        <time>2012-01-18T11:31:08Z</time>
      </trkpt>
      <trkpt lat="43.61272" lon="7.09342">
        <ele>87.099586486816</ele>
        <time>2012-01-18T11:31:12Z</time>
      </trkpt>
      <trkpt lat="43.6128" lon="7.09354">
        <ele>86.785354614258</ele>
        <time>2012-01-18T11:31:15Z</time>
      </trkpt>
      <trkpt lat="43.61287" lon="7.09359">
        <ele>87.635681152344</ele>
        <time>2012-01-18T11:31:17Z</time>
      </trkpt>
      <trkpt lat="43.61294" lon="7.09359">
        <ele>89.551536560059</ele>
        <time>2012-01-18T11:31:19Z</time>
      </trkpt>
      <trkpt lat="43.61301" lon="7.0936">
        <ele>91.200233459473</ele>
        <time>2012-01-18T11:31:21Z</time>
      </trkpt>
      <trkpt lat="43.61324" lon="7.09354">
        <ele>95.282043457031</ele>
        <time>2012-01-18T11:31:27Z</time>
      </trkpt>
      <trkpt lat="43.61344" lon="7.09345">
        <ele>98.737693786621</ele>
        <time>2012-01-18T11:31:34Z</time>
      </trkpt>
      <trkpt lat="43.6136" lon="7.09342">
        <ele>99.947624206543</ele>
        <time>2012-01-18T11:31:39Z</time>
      </trkpt>
      <trkpt lat="43.61378" lon="7.09345">
        <ele>100</ele>
        <time>2012-01-18T11:31:44Z</time>
      </trkpt>
      <trkpt lat="43.61388" lon="7.09356">
        <ele>100</ele>
        <time>2012-01-18T11:31:49Z</time>
      </trkpt>
      <trkpt lat="43.61397" lon="7.09366">
        <ele>99.279235839844</ele>
        <time>2012-01-18T11:31:55Z</time>
      </trkpt>
      <trkpt lat="43.61414" lon="7.09358">
        <ele>100</ele>
        <time>2012-01-18T11:32:01Z</time>
      </trkpt>
      <trkpt lat="43.61422" lon="7.09346">
        <ele>100</ele>
        <time>2012-01-18T11:32:05Z</time>
      </trkpt>
      <trkpt lat="43.61427" lon="7.0934">
        <ele>100</ele>
        <time>2012-01-18T11:32:07Z</time>
      </trkpt>
      <trkpt lat="43.61434" lon="7.0932">
        <ele>100</ele>
        <time>2012-01-18T11:32:12Z</time>
      </trkpt>
      <trkpt lat="43.61438" lon="7.09293">
        <ele>100</ele>
        <time>2012-01-18T11:32:19Z</time>
      </trkpt>
      <trkpt lat="43.61445" lon="7.09276">
        <ele>100</ele>
        <time>2012-01-18T11:32:24Z</time>
      </trkpt>
      <trkpt lat="43.61456" lon="7.0926">
        <ele>100</ele>
        <time>2012-01-18T11:32:30Z</time>
      </trkpt>
      <trkpt lat="43.61457" lon="7.09257">
        <ele>100</ele>
        <time>2012-01-18T11:32:34Z</time>
      </trkpt>
      <trkpt lat="43.61456" lon="7.09255">
        <ele>100</ele>
        <time>2012-01-18T11:32:36Z</time>
      </trkpt>
      <trkpt lat="43.61456" lon="7.09254">
        <ele>100</ele>
        <time>2012-01-18T11:32:40Z</time>
      </trkpt>
      <trkpt lat="43.61456" lon="7.09255">
        <ele>100</ele>
        <time>2012-01-18T11:33:10Z</time>
      </trkpt>
      <trkpt lat="43.61459" lon="7.09253">
        <ele>100</ele>
        <time>2012-01-18T11:33:24Z</time>
      </trkpt>
      <trkpt lat="43.61459" lon="7.09247">
        <ele>100</ele>
        <time>2012-01-18T11:33:31Z</time>
      </trkpt>
      <trkpt lat="43.61461" lon="7.09233">
        <ele>100</ele>
        <time>2012-01-18T11:33:56Z</time>
      </trkpt>
      <trkpt lat="43.61464" lon="7.0923">
        <ele>100</ele>
        <time>2012-01-18T11:33:58Z</time>
      </trkpt>
      <trkpt lat="43.61466" lon="7.09232">
        <ele>100</ele>
        <time>2012-01-18T11:34:00Z</time>
      </trkpt>
      <trkpt lat="43.61478" lon="7.09244">
        <ele>100</ele>
        <time>2012-01-18T11:34:03Z</time>
      </trkpt>
      <trkpt lat="43.61485" lon="7.09249">
        <ele>100</ele>
        <time>2012-01-18T11:34:04Z</time>
      </trkpt>
      <trkpt lat="43.61505" lon="7.09262">
        <ele>100</ele>
        <time>2012-01-18T11:34:07Z</time>
      </trkpt>
      <trkpt lat="43.61518" lon="7.09275">
        <ele>100</ele>
        <time>2012-01-18T11:34:09Z</time>
      </trkpt>
      <trkpt lat="43.61526" lon="7.09296">
        <ele>100</ele>
        <time>2012-01-18T11:34:11Z</time>
      </trkpt>
      <trkpt lat="43.6153" lon="7.09315">
        <ele>100</ele>
        <time>2012-01-18T11:34:13Z</time>
      </trkpt>
      <trkpt lat="43.6153" lon="7.0933">
        <ele>100</ele>
        <time>2012-01-18T11:34:14Z</time>
      </trkpt>
      <trkpt lat="43.61525" lon="7.09368">
        <ele>99.56999206543</ele>
        <time>2012-01-18T11:34:17Z</time>
      </trkpt>
      <trkpt lat="43.61522" lon="7.09415">
        <ele>95.584480285645</ele>
        <time>2012-01-18T11:34:21Z</time>
      </trkpt>
      <trkpt lat="43.61518" lon="7.09423">
        <ele>94.821807861328</ele>
        <time>2012-01-18T11:34:22Z</time>
      </trkpt>
      <trkpt lat="43.61506" lon="7.09439">
        <ele>92.970962524414</ele>
        <time>2012-01-18T11:34:24Z</time>
      </trkpt>
      <trkpt lat="43.61496" lon="7.09456">
        <ele>90.433158874512</ele>
        <time>2012-01-18T11:34:27Z</time>
      </trkpt>
      <trkpt lat="43.61497" lon="7.09461">
        <ele>89.956069946289</ele>
        <time>2012-01-18T11:34:28Z</time>
      </trkpt>
      <trkpt lat="43.61498" lon="7.09474">
        <ele>88.559219360352</ele>
        <time>2012-01-18T11:34:32Z</time>
      </trkpt>
      <trkpt lat="43.61499" lon="7.0948">
        <ele>87.415626525879</ele>
        <time>2012-01-18T11:34:34Z</time>
      </trkpt>
      <trkpt lat="43.61503" lon="7.09495">
        <ele>84.999923706055</ele>
        <time>2012-01-18T11:34:38Z</time>
      </trkpt>
      <trkpt lat="43.61514" lon="7.09519">
        <ele>81.749114990234</ele>
        <time>2012-01-18T11:34:43Z</time>
      </trkpt>
      <trkpt lat="43.61528" lon="7.09544">
        <ele>80.267631530762</ele>
        <time>2012-01-18T11:34:47Z</time>
      </trkpt>
      <trkpt lat="43.6153" lon="7.0955">
        <ele>79.733810424805</ele>
        <time>2012-01-18T11:34:48Z</time>
      </trkpt>
      <trkpt lat="43.61539" lon="7.09563">
        <ele>78.697654724121</ele>
        <time>2012-01-18T11:34:51Z</time>
      </trkpt>
      <trkpt lat="43.61541" lon="7.09566">
        <ele>78.470138549805</ele>
        <time>2012-01-18T11:34:52Z</time>
      </trkpt>
      <trkpt lat="43.61544" lon="7.09569">
        <ele>78.353240966797</ele>
        <time>2012-01-18T11:34:53Z</time>
      </trkpt>
      <trkpt lat="43.61554" lon="7.09574">
        <ele>78.85311126709</ele>
        <time>2012-01-18T11:34:56Z</time>
      </trkpt>
      <trkpt lat="43.61559" lon="7.09577">
        <ele>78.79759979248</ele>
        <time>2012-01-18T11:34:58Z</time>
      </trkpt>
      <trkpt lat="43.61567" lon="7.09582">
        <ele>78.569290161133</ele>
        <time>2012-01-18T11:35:01Z</time>
      </trkpt>
      <trkpt lat="43.61572" lon="7.09583">
        <ele>78.584449768066</ele>
        <time>2012-01-18T11:35:04Z</time>
      </trkpt>
      <trkpt lat="43.61581" lon="7.09584">
        <ele>78.850891113281</ele>
        <time>2012-01-18T11:35:08Z</time>
      </trkpt>
      <trkpt lat="43.61586" lon="7.09583">
        <ele>79.126350402832</ele>
        <time>2012-01-18T11:35:10Z</time>
      </trkpt>
      <trkpt lat="43.61597" lon="7.09584">
        <ele>79.403564453125</ele>
        <time>2012-01-18T11:35:16Z</time>
      </trkpt>
      <trkpt lat="43.61599" lon="7.09584">
        <ele>79.501411437988</ele>
        <time>2012-01-18T11:35:18Z</time>
      </trkpt>
      <trkpt lat="43.61601" lon="7.09583">
        <ele>79.692413330078</ele>
        <time>2012-01-18T11:35:22Z</time>
      </trkpt>
      <trkpt lat="43.61608" lon="7.09596">
        <ele>78.473159790039</ele>
        <time>2012-01-18T11:35:58Z</time>
      </trkpt>
      <trkpt lat="43.61623" lon="7.0961">
        <ele>76.259658813477</ele>
        <time>2012-01-18T11:36:02Z</time>
      </trkpt>
      <trkpt lat="43.61642" lon="7.09628">
        <ele>73.94213104248</ele>
        <time>2012-01-18T11:36:07Z</time>
      </trkpt>
      <trkpt lat="43.61659" lon="7.09641">
        <ele>71.053802490234</ele>
        <time>2012-01-18T11:36:10Z</time>
      </trkpt>
      <trkpt lat="43.61666" lon="7.09646">
        <ele>70.12654876709</ele>
        <time>2012-01-18T11:36:11Z</time>
      </trkpt>
      <trkpt lat="43.61678" lon="7.09657">
        <ele>69.862358093262</ele>
        <time>2012-01-18T11:36:13Z</time>
      </trkpt>
      <trkpt lat="43.61692" lon="7.09662">
        <ele>69.859886169434</ele>
        <time>2012-01-18T11:36:15Z</time>
      </trkpt>
      <trkpt lat="43.61708" lon="7.09665">
        <ele>68.931671142578</ele>
        <time>2012-01-18T11:36:17Z</time>
      </trkpt>
      <trkpt lat="43.61726" lon="7.09667">
        <ele>66.80965423584</ele>
        <time>2012-01-18T11:36:19Z</time>
      </trkpt>
      <trkpt lat="43.61737" lon="7.09664">
        <ele>62.830146789551</ele>
        <time>2012-01-18T11:36:21Z</time>
      </trkpt>
      <trkpt lat="43.61743" lon="7.09661">
        <ele>60.854724884033</ele>
        <time>2012-01-18T11:36:22Z</time>
      </trkpt>
      <trkpt lat="43.61758" lon="7.09654">
        <ele>56.16576385498</ele>
        <time>2012-01-18T11:36:25Z</time>
      </trkpt>
      <trkpt lat="43.61763" lon="7.09652">
        <ele>54.790138244629</ele>
        <time>2012-01-18T11:36:26Z</time>
      </trkpt>
      <trkpt lat="43.61785" lon="7.09649">
        <ele>48.619102478027</ele>
        <time>2012-01-18T11:36:30Z</time>
      </trkpt>
      <trkpt lat="43.61789" lon="7.09652">
        <ele>47.376274108887</ele>
        <time>2012-01-18T11:36:31Z</time>
      </trkpt>
      <trkpt lat="43.61797" lon="7.09653">
        <ele>44.504379272461</ele>
        <time>2012-01-18T11:36:33Z</time>
      </trkpt>
      <trkpt lat="43.61801" lon="7.09655">
        <ele>43.275283813477</ele>
        <time>2012-01-18T11:36:34Z</time>
      </trkpt>
      <trkpt lat="43.61808" lon="7.09664">
        <ele>42.378932952881</ele>
        <time>2012-01-18T11:36:37Z</time>
      </trkpt>
      <trkpt lat="43.61816" lon="7.09665">
        <ele>41.428646087646</ele>
        <time>2012-01-18T11:36:40Z</time>
      </trkpt>
      <trkpt lat="43.61823" lon="7.09671">
        <ele>40.662998199463</ele>
        <time>2012-01-18T11:36:43Z</time>
      </trkpt>
      <trkpt lat="43.61826" lon="7.09672">
        <ele>40.269432067871</ele>
        <time>2012-01-18T11:36:44Z</time>
      </trkpt>
      <trkpt lat="43.6183" lon="7.09675">
        <ele>39.625801086426</ele>
        <time>2012-01-18T11:36:48Z</time>
      </trkpt>
      <trkpt lat="43.61847" lon="7.09683">
        <ele>39</ele>
        <time>2012-01-18T11:38:09Z</time>
      </trkpt>
      <trkpt lat="43.61868" lon="7.09689">
        <ele>38.065441131592</ele>
        <time>2012-01-18T11:38:13Z</time>
      </trkpt>
      <trkpt lat="43.61881" lon="7.09696">
        <ele>36.115257263184</ele>
        <time>2012-01-18T11:38:15Z</time>
      </trkpt>
      <trkpt lat="43.61884" lon="7.09702">
        <ele>35.437808990479</ele>
        <time>2012-01-18T11:38:16Z</time>
      </trkpt>
      <trkpt lat="43.61895" lon="7.09734">
        <ele>32.656925201416</ele>
        <time>2012-01-18T11:38:20Z</time>
      </trkpt>
      <trkpt lat="43.61898" lon="7.09743">
        <ele>31.571018218994</ele>
        <time>2012-01-18T11:38:21Z</time>
      </trkpt>
      <trkpt lat="43.61909" lon="7.09772">
        <ele>27.17657661438</ele>
        <time>2012-01-18T11:38:24Z</time>
      </trkpt>
      <trkpt lat="43.61917" lon="7.09789">
        <ele>24.988098144531</ele>
        <time>2012-01-18T11:38:26Z</time>
      </trkpt>
      <trkpt lat="43.6192" lon="7.09799">
        <ele>24.438781738281</ele>
        <time>2012-01-18T11:38:27Z</time>
      </trkpt>
      <trkpt lat="43.61925" lon="7.09818">
        <ele>24.170938491821</ele>
        <time>2012-01-18T11:38:29Z</time>
      </trkpt>
      <trkpt lat="43.61931" lon="7.09829">
        <ele>23.185094833374</ele>
        <time>2012-01-18T11:38:32Z</time>
      </trkpt>
      <trkpt lat="43.61933" lon="7.0983">
        <ele>22.757558822632</ele>
        <time>2012-01-18T11:38:36Z</time>
      </trkpt>
      <trkpt lat="43.61936" lon="7.09832">
        <ele>22.151252746582</ele>
        <time>2012-01-18T11:38:41Z</time>
      </trkpt>
      <trkpt lat="43.6194" lon="7.09835">
        <ele>21.033304214477</ele>
        <time>2012-01-18T11:38:43Z</time>
      </trkpt>
      <trkpt lat="43.6195" lon="7.09838">
        <ele>20</ele>
        <time>2012-01-18T11:38:46Z</time>
      </trkpt>
      <trkpt lat="43.61957" lon="7.09839">
        <ele>20</ele>
        <time>2012-01-18T11:38:48Z</time>
      </trkpt>
      <trkpt lat="43.61982" lon="7.09837">
        <ele>20</ele>
        <time>2012-01-18T11:38:54Z</time>
      </trkpt>
      <trkpt lat="43.61997" lon="7.09843">
        <ele>20</ele>
        <time>2012-01-18T11:38:58Z</time>
      </trkpt>
      <trkpt lat="43.62001" lon="7.09847">
        <ele>20.061122894287</ele>
        <time>2012-01-18T11:38:59Z</time>
      </trkpt>
      <trkpt lat="43.62014" lon="7.09861">
        <ele>20.051080703735</ele>
        <time>2012-01-18T11:39:03Z</time>
      </trkpt>
      <trkpt lat="43.62022" lon="7.09867">
        <ele>20</ele>
        <time>2012-01-18T11:39:05Z</time>
      </trkpt>
      <trkpt lat="43.62036" lon="7.09882">
        <ele>20.152864456177</ele>
        <time>2012-01-18T11:39:09Z</time>
      </trkpt>
      <trkpt lat="43.62062" lon="7.09908">
        <ele>20.143840789795</ele>
        <time>2012-01-18T11:39:16Z</time>
      </trkpt>
      <trkpt lat="43.62066" lon="7.09912">
        <ele>20.123687744141</ele>
        <time>2012-01-18T11:39:17Z</time>
      </trkpt>
      <trkpt lat="43.62077" lon="7.09922">
        <ele>20</ele>
        <time>2012-01-18T11:39:20Z</time>
      </trkpt>
      <trkpt lat="43.6208" lon="7.09925">
        <ele>20</ele>
        <time>2012-01-18T11:39:21Z</time>
      </trkpt>
      <trkpt lat="43.62101" lon="7.09939">
        <ele>20</ele>
        <time>2012-01-18T11:39:26Z</time>
      </trkpt>
      <trkpt lat="43.62106" lon="7.09942">
        <ele>20</ele>
        <time>2012-01-18T11:39:27Z</time>
      </trkpt>
      <trkpt lat="43.62115" lon="7.09946">
        <ele>20</ele>
        <time>2012-01-18T11:39:29Z</time>
      </trkpt>
      <trkpt lat="43.62123" lon="7.09949">
        <ele>20</ele>
        <time>2012-01-18T11:39:31Z</time>
      </trkpt>
      <trkpt lat="43.62131" lon="7.09953">
        <ele>20</ele>
        <time>2012-01-18T11:39:33Z</time>
      </trkpt>
      <trkpt lat="43.62149" lon="7.09963">
        <ele>20</ele>
        <time>2012-01-18T11:39:37Z</time>
      </trkpt>
      <trkpt lat="43.62172" lon="7.09979">
        <ele>20</ele>
        <time>2012-01-18T11:39:42Z</time>
      </trkpt>
      <trkpt lat="43.6219" lon="7.10003">
        <ele>20</ele>
        <time>2012-01-18T11:39:46Z</time>
      </trkpt>
      <trkpt lat="43.62204" lon="7.10001">
        <ele>20</ele>
        <time>2012-01-18T11:39:48Z</time>
      </trkpt>
      <trkpt lat="43.62212" lon="7.09987">
        <ele>20</ele>
        <time>2012-01-18T11:39:50Z</time>
      </trkpt>
      <trkpt lat="43.62224" lon="7.09972">
        <ele>20</ele>
        <time>2012-01-18T11:39:53Z</time>
      </trkpt>
      <trkpt lat="43.62233" lon="7.09963">
        <ele>20</ele>
        <time>2012-01-18T11:39:55Z</time>
      </trkpt>
      <trkpt lat="43.62269" lon="7.09924">
        <ele>20</ele>
        <time>2012-01-18T11:40:04Z</time>
      </trkpt>
      <trkpt lat="43.62285" lon="7.09914">
        <ele>20</ele>
        <time>2012-01-18T11:40:08Z</time>
      </trkpt>
      <trkpt lat="43.62294" lon="7.09912">
        <ele>20</ele>
        <time>2012-01-18T11:40:10Z</time>
      </trkpt>
      <trkpt lat="43.62326" lon="7.09905">
        <ele>20</ele>
        <time>2012-01-18T11:40:18Z</time>
      </trkpt>
      <trkpt lat="43.62336" lon="7.09888">
        <ele>20</ele>
        <time>2012-01-18T11:40:22Z</time>
      </trkpt>
      <trkpt lat="43.62338" lon="7.09883">
        <ele>20</ele>
        <time>2012-01-18T11:40:23Z</time>
      </trkpt>
      <trkpt lat="43.62351" lon="7.09849">
        <ele>20</ele>
        <time>2012-01-18T11:40:29Z</time>
      </trkpt>
      <trkpt lat="43.62374" lon="7.09806">
        <ele>20</ele>
        <time>2012-01-18T11:40:37Z</time>
      </trkpt>
      <trkpt lat="43.62394" lon="7.09765">
        <ele>20</ele>
        <time>2012-01-18T11:40:45Z</time>
      </trkpt>
      <trkpt lat="43.62414" lon="7.09729">
        <ele>20</ele>
        <time>2012-01-18T11:40:52Z</time>
      </trkpt>
      <trkpt lat="43.62418" lon="7.09726">
        <ele>20</ele>
        <time>2012-01-18T11:40:53Z</time>
      </trkpt>
      <trkpt lat="43.62431" lon="7.09719">
        <ele>20</ele>
        <time>2012-01-18T11:40:56Z</time>
      </trkpt>
      <trkpt lat="43.62439" lon="7.09717">
        <ele>20</ele>
        <time>2012-01-18T11:40:58Z</time>
      </trkpt>
      <trkpt lat="43.62475" lon="7.09707">
        <ele>20</ele>
        <time>2012-01-18T11:41:07Z</time>
      </trkpt>
      <trkpt lat="43.62504" lon="7.09696">
        <ele>20</ele>
        <time>2012-01-18T11:41:15Z</time>
      </trkpt>
      <trkpt lat="43.62531" lon="7.09688">
        <ele>20.19748878479</ele>
        <time>2012-01-18T11:41:23Z</time>
      </trkpt>
      <trkpt lat="43.62553" lon="7.09683">
        <ele>21.472658157349</ele>
        <time>2012-01-18T11:41:30Z</time>
      </trkpt>
      <trkpt lat="43.62576" lon="7.09678">
        <ele>24.890640258789</ele>
        <time>2012-01-18T11:41:37Z</time>
      </trkpt>
      <trkpt lat="43.62595" lon="7.09676">
        <ele>29.879096984863</ele>
        <time>2012-01-18T11:41:44Z</time>
      </trkpt>
      <trkpt lat="43.62616" lon="7.09675">
        <ele>35.947566986084</ele>
        <time>2012-01-18T11:41:52Z</time>
      </trkpt>
      <trkpt lat="43.6262" lon="7.09672">
        <ele>36.363437652588</ele>
        <time>2012-01-18T11:41:55Z</time>
      </trkpt>
      <trkpt lat="43.62619" lon="7.0967">
        <ele>35.963809967041</ele>
        <time>2012-01-18T11:41:57Z</time>
      </trkpt>
      <trkpt lat="43.62618" lon="7.09666">
        <ele>35.4235496521</ele>
        <time>2012-01-18T11:42:00Z</time>
      </trkpt>
      <trkpt lat="43.62618" lon="7.09666">
        <ele>35.500198364258</ele>
        <time>2012-01-18T11:42:02Z</time>
      </trkpt>
      <trkpt lat="43.62617" lon="7.09659">
        <ele>34.447536468506</ele>
        <time>2012-01-18T11:42:46Z</time>
      </trkpt>
      <trkpt lat="43.62618" lon="7.09639">
        <ele>32.203094482422</ele>
        <time>2012-01-18T11:42:53Z</time>
      </trkpt>
      <trkpt lat="43.62619" lon="7.09613">
        <ele>30.651275634766</ele>
        <time>2012-01-18T11:43:01Z</time>
      </trkpt>
      <trkpt lat="43.62627" lon="7.09591">
        <ele>29.721542358398</ele>
        <time>2012-01-18T11:43:09Z</time>
      </trkpt>
      <trkpt lat="43.62642" lon="7.09573">
        <ele>30.495010375977</ele>
        <time>2012-01-18T11:43:17Z</time>
      </trkpt>
      <trkpt lat="43.62654" lon="7.0956">
        <ele>32.450233459473</ele>
        <time>2012-01-18T11:43:23Z</time>
      </trkpt>
      <trkpt lat="43.6267" lon="7.09556">
        <ele>35.693786621094</ele>
        <time>2012-01-18T11:43:29Z</time>
      </trkpt>
      <trkpt lat="43.62689" lon="7.09547">
        <ele>38.622589111328</ele>
        <time>2012-01-18T11:43:37Z</time>
      </trkpt>
      <trkpt lat="43.62702" lon="7.09529">
        <ele>40.451503753662</ele>
        <time>2012-01-18T11:43:45Z</time>
      </trkpt>
      <trkpt lat="43.62711" lon="7.09499">
        <ele>38.925354003906</ele>
        <time>2012-01-18T11:43:54Z</time>
      </trkpt>
      <trkpt lat="43.6272" lon="7.09467">
        <ele>38.223217010498</ele>
        <time>2012-01-18T11:44:04Z</time>
      </trkpt>
      <trkpt lat="43.62736" lon="7.09432">
        <ele>39.09476852417</ele>
        <time>2012-01-18T11:44:16Z</time>
      </trkpt>
      <trkpt lat="43.62748" lon="7.0941">
        <ele>40.422290802002</ele>
        <time>2012-01-18T11:44:24Z</time>
      </trkpt>
      <trkpt lat="43.62762" lon="7.09385">
        <ele>49.412452697754</ele>
        <time>2012-01-18T11:44:33Z</time>
      </trkpt>
      <trkpt lat="43.62775" lon="7.09359">
        <ele>56.234272003174</ele>
        <time>2012-01-18T11:44:42Z</time>
      </trkpt>
      <trkpt lat="43.62781" lon="7.09336">
        <ele>58.17361831665</ele>
        <time>2012-01-18T11:44:49Z</time>
      </trkpt>
      <trkpt lat="43.62783" lon="7.09315">
        <ele>58.904029846191</ele>
        <time>2012-01-18T11:44:55Z</time>
      </trkpt>
      <trkpt lat="43.62784" lon="7.09293">
        <ele>59.659561157227</ele>
        <time>2012-01-18T11:45:02Z</time>
      </trkpt>
      <trkpt lat="43.62791" lon="7.09285">
        <ele>60.241493225098</ele>
        <time>2012-01-18T11:45:07Z</time>
      </trkpt>
      <trkpt lat="43.62799" lon="7.09287">
        <ele>60.440620422363</ele>
        <time>2012-01-18T11:45:12Z</time>
      </trkpt>
      <trkpt lat="43.62801" lon="7.0929">
        <ele>60.406288146973</ele>
        <time>2012-01-18T11:45:14Z</time>
      </trkpt>
      <trkpt lat="43.62804" lon="7.09297">
        <ele>60.280975341797</ele>
        <time>2012-01-18T11:45:18Z</time>
      </trkpt>
      <trkpt lat="43.62807" lon="7.0931">
        <ele>60.790546417236</ele>
        <time>2012-01-18T11:45:24Z</time>
      </trkpt>
      <trkpt lat="43.62805" lon="7.09325">
        <ele>59.953807830811</ele>
        <time>2012-01-18T11:45:29Z</time>
      </trkpt>
      <trkpt lat="43.62803" lon="7.09343">
        <ele>60.097438812256</ele>
        <time>2012-01-18T11:45:37Z</time>
      </trkpt>
      <trkpt lat="43.62794" lon="7.09365">
        <ele>59.526355743408</ele>
        <time>2012-01-18T11:45:46Z</time>
      </trkpt>
      <trkpt lat="43.62786" lon="7.09388">
        <ele>58.794193267822</ele>
        <time>2012-01-18T11:45:54Z</time>
      </trkpt>
      <trkpt lat="43.62782" lon="7.09408">
        <ele>56.892505645752</ele>
        <time>2012-01-18T11:46:00Z</time>
      </trkpt>
      <trkpt lat="43.62774" lon="7.09439">
        <ele>55.194011688232</ele>
        <time>2012-01-18T11:46:08Z</time>
      </trkpt>
      <trkpt lat="43.62773" lon="7.09468">
        <ele>57.33703994751</ele>
        <time>2012-01-18T11:46:15Z</time>
      </trkpt>
      <trkpt lat="43.62774" lon="7.09493">
        <ele>60.671890258789</ele>
        <time>2012-01-18T11:46:21Z</time>
      </trkpt>
      <trkpt lat="43.62776" lon="7.09523">
        <ele>63.212493896484</ele>
        <time>2012-01-18T11:46:29Z</time>
      </trkpt>
      <trkpt lat="43.6278" lon="7.09553">
        <ele>65.320602416992</ele>
        <time>2012-01-18T11:46:37Z</time>
      </trkpt>
      <trkpt lat="43.6278" lon="7.0958">
        <ele>65.282867431641</ele>
        <time>2012-01-18T11:46:43Z</time>
      </trkpt>
      <trkpt lat="43.6278" lon="7.09599">
        <ele>64.651863098145</ele>
        <time>2012-01-18T11:46:47Z</time>
      </trkpt>
      <trkpt lat="43.62781" lon="7.09636">
        <ele>63.375396728516</ele>
        <time>2012-01-18T11:46:55Z</time>
      </trkpt>
      <trkpt lat="43.62782" lon="7.09651">
        <ele>62.76354598999</ele>
        <time>2012-01-18T11:46:59Z</time>
      </trkpt>
      <trkpt lat="43.62785" lon="7.09657">
        <ele>62.69303894043</ele>
        <time>2012-01-18T11:47:01Z</time>
      </trkpt>
      <trkpt lat="43.62798" lon="7.09665">
        <ele>62.815841674805</ele>
        <time>2012-01-18T11:47:06Z</time>
      </trkpt>
      <trkpt lat="43.62806" lon="7.0966">
        <ele>63.465881347656</ele>
        <time>2012-01-18T11:47:09Z</time>
      </trkpt>
      <trkpt lat="43.62811" lon="7.09649">
        <ele>64.405014038086</ele>
        <time>2012-01-18T11:47:12Z</time>
      </trkpt>
      <trkpt lat="43.62814" lon="7.09637">
        <ele>65.450332641602</ele>
        <time>2012-01-18T11:47:15Z</time>
      </trkpt>
      <trkpt lat="43.62826" lon="7.0961">
        <ele>67.880989074707</ele>
        <time>2012-01-18T11:47:23Z</time>
      </trkpt>
      <trkpt lat="43.6283" lon="7.09592">
        <ele>69.874977111816</ele>
        <time>2012-01-18T11:47:27Z</time>
      </trkpt>
      <trkpt lat="43.62833" lon="7.0958">
        <ele>71.379165649414</ele>
        <time>2012-01-18T11:47:31Z</time>
      </trkpt>
      <trkpt lat="43.62833" lon="7.09577">
        <ele>71.629600524902</ele>
        <time>2012-01-18T11:47:32Z</time>
      </trkpt>
      <trkpt lat="43.62834" lon="7.09563">
        <ele>73.196502685547</ele>
        <time>2012-01-18T11:47:38Z</time>
      </trkpt>
      <trkpt lat="43.62835" lon="7.09561">
        <ele>73.510292053223</ele>
        <time>2012-01-18T11:47:39Z</time>
      </trkpt>
      <trkpt lat="43.62838" lon="7.09555">
        <ele>74.360549926758</ele>
        <time>2012-01-18T11:47:43Z</time>
      </trkpt>
      <trkpt lat="43.62838" lon="7.09553">
        <ele>74.556243896484</ele>
        <time>2012-01-18T11:47:44Z</time>
      </trkpt>
      <trkpt lat="43.62841" lon="7.09532">
        <ele>76.259124755859</ele>
        <time>2012-01-18T11:47:51Z</time>
      </trkpt>
      <trkpt lat="43.62841" lon="7.09518">
        <ele>77.479804992676</ele>
        <time>2012-01-18T11:47:56Z</time>
      </trkpt>
      <trkpt lat="43.62845" lon="7.09496">
        <ele>79.626426696777</ele>
        <time>2012-01-18T11:48:04Z</time>
      </trkpt>
      <trkpt lat="43.62847" lon="7.09483">
        <ele>80.419097900391</ele>
        <time>2012-01-18T11:48:09Z</time>
      </trkpt>
      <trkpt lat="43.62849" lon="7.09466">
        <ele>81.129692077637</ele>
        <time>2012-01-18T11:48:16Z</time>
      </trkpt>
      <trkpt lat="43.62851" lon="7.09451">
        <ele>81.473922729492</ele>
        <time>2012-01-18T11:48:23Z</time>
      </trkpt>
      <trkpt lat="43.62856" lon="7.09436">
        <ele>81.799072265625</ele>
        <time>2012-01-18T11:48:30Z</time>
      </trkpt>
      <trkpt lat="43.6286" lon="7.09415">
        <ele>81.950134277344</ele>
        <time>2012-01-18T11:48:38Z</time>
      </trkpt>
      <trkpt lat="43.62862" lon="7.09386">
        <ele>82.03589630127</ele>
        <time>2012-01-18T11:48:47Z</time>
      </trkpt>
      <trkpt lat="43.62859" lon="7.09366">
        <ele>81.936401367188</ele>
        <time>2012-01-18T11:48:53Z</time>
      </trkpt>
      <trkpt lat="43.62858" lon="7.09354">
        <ele>82.071014404297</ele>
        <time>2012-01-18T11:48:57Z</time>
      </trkpt>
      <trkpt lat="43.62859" lon="7.09348">
        <ele>82.291839599609</ele>
        <time>2012-01-18T11:48:59Z</time>
      </trkpt>
      <trkpt lat="43.62858" lon="7.09345">
        <ele>82.310684204102</ele>
        <time>2012-01-18T11:49:00Z</time>
      </trkpt>
      <trkpt lat="43.62855" lon="7.09337">
        <ele>82.233863830566</ele>
        <time>2012-01-18T11:49:03Z</time>
      </trkpt>
      <trkpt lat="43.62856" lon="7.0933">
        <ele>82.357414245605</ele>
        <time>2012-01-18T11:49:06Z</time>
      </trkpt>
      <trkpt lat="43.62854" lon="7.09321">
        <ele>81.741149902344</ele>
        <time>2012-01-18T11:49:09Z</time>
      </trkpt>
      <trkpt lat="43.62857" lon="7.09311">
        <ele>81.71711730957</ele>
        <time>2012-01-18T11:49:12Z</time>
      </trkpt>
      <trkpt lat="43.62856" lon="7.093">
        <ele>81.543022155762</ele>
        <time>2012-01-18T11:49:15Z</time>
      </trkpt>
      <trkpt lat="43.62855" lon="7.09294">
        <ele>81.413925170898</ele>
        <time>2012-01-18T11:49:17Z</time>
      </trkpt>
      <trkpt lat="43.6285" lon="7.09278">
        <ele>80.258392333984</ele>
        <time>2012-01-18T11:49:23Z</time>
      </trkpt>
      <trkpt lat="43.62844" lon="7.09256">
        <ele>77.054321289062</ele>
        <time>2012-01-18T11:49:30Z</time>
      </trkpt>
      <trkpt lat="43.62845" lon="7.09226">
        <ele>76.524101257324</ele>
        <time>2012-01-18T11:49:38Z</time>
      </trkpt>
      <trkpt lat="43.62847" lon="7.09196">
        <ele>79.314910888672</ele>
        <time>2012-01-18T11:49:46Z</time>
      </trkpt>
      <trkpt lat="43.62851" lon="7.09162">
        <ele>82.361473083496</ele>
        <time>2012-01-18T11:49:56Z</time>
      </trkpt>
      <trkpt lat="43.62854" lon="7.0913">
        <ele>84.168121337891</ele>
        <time>2012-01-18T11:50:05Z</time>
      </trkpt>
      <trkpt lat="43.62857" lon="7.09118">
        <ele>83.452217102051</ele>
        <time>2012-01-18T11:50:09Z</time>
      </trkpt>
      <trkpt lat="43.6286" lon="7.09099">
        <ele>82.571105957031</ele>
        <time>2012-01-18T11:50:15Z</time>
      </trkpt>
      <trkpt lat="43.62863" lon="7.09087">
        <ele>82.157745361328</ele>
        <time>2012-01-18T11:50:19Z</time>
      </trkpt>
      <trkpt lat="43.62863" lon="7.09084">
        <ele>82.028923034668</ele>
        <time>2012-01-18T11:50:20Z</time>
      </trkpt>
      <trkpt lat="43.62866" lon="7.09078">
        <ele>81.817512512207</ele>
        <time>2012-01-18T11:50:22Z</time>
      </trkpt>
      <trkpt lat="43.62869" lon="7.09074">
        <ele>81.66130065918</ele>
        <time>2012-01-18T11:50:24Z</time>
      </trkpt>
      <trkpt lat="43.62873" lon="7.09056">
        <ele>81.029586791992</ele>
        <time>2012-01-18T11:50:29Z</time>
      </trkpt>
      <trkpt lat="43.62882" lon="7.09042">
        <ele>79.819725036621</ele>
        <time>2012-01-18T11:50:34Z</time>
      </trkpt>
      <trkpt lat="43.62894" lon="7.09012">
        <ele>75.253295898438</ele>
        <time>2012-01-18T11:50:42Z</time>
      </trkpt>
      <trkpt lat="43.62903" lon="7.09003">
        <ele>73.034378051758</ele>
        <time>2012-01-18T11:50:45Z</time>
      </trkpt>
      <trkpt lat="43.62909" lon="7.09001">
        <ele>72.003372192383</ele>
        <time>2012-01-18T11:50:49Z</time>
      </trkpt>
      <trkpt lat="43.62911" lon="7.08999">
        <ele>71.36661529541</ele>
        <time>2012-01-18T11:50:58Z</time>
      </trkpt>
      <trkpt lat="43.62912" lon="7.08998">
        <ele>70.792579650879</ele>
        <time>2012-01-18T11:51:00Z</time>
      </trkpt>
      <trkpt lat="43.62915" lon="7.08997">
        <ele>70.217575073242</ele>
        <time>2012-01-18T11:51:03Z</time>
      </trkpt>
      <trkpt lat="43.62915" lon="7.08997">
        <ele>70.155227661133</ele>
        <time>2012-01-18T11:51:04Z</time>
      </trkpt>
      <trkpt lat="43.62918" lon="7.08997">
        <ele>70.066497802734</ele>
        <time>2012-01-18T11:51:11Z</time>
      </trkpt>
      <trkpt lat="43.62927" lon="7.08998">
        <ele>70.98365020752</ele>
        <time>2012-01-18T11:51:38Z</time>
      </trkpt>
      <trkpt lat="43.62935" lon="7.08991">
        <ele>69.356109619141</ele>
        <time>2012-01-18T11:51:43Z</time>
      </trkpt>
      <trkpt lat="43.62948" lon="7.0898">
        <ele>66.060028076172</ele>
        <time>2012-01-18T11:51:48Z</time>
      </trkpt>
      <trkpt lat="43.62959" lon="7.08974">
        <ele>65.270385742188</ele>
        <time>2012-01-18T11:51:52Z</time>
      </trkpt>
      <trkpt lat="43.6296" lon="7.08973">
        <ele>65.078125</ele>
        <time>2012-01-18T11:51:53Z</time>
      </trkpt>
      <trkpt lat="43.62964" lon="7.08969">
        <ele>63.960674285889</ele>
        <time>2012-01-18T11:51:56Z</time>
      </trkpt>
      <trkpt lat="43.62968" lon="7.08965">
        <ele>63.110862731934</ele>
        <time>2012-01-18T11:51:59Z</time>
      </trkpt>
      <trkpt lat="43.62967" lon="7.08962">
        <ele>62.037879943848</ele>
        <time>2012-01-18T11:52:01Z</time>
      </trkpt>
      <trkpt lat="43.62971" lon="7.08958">
        <ele>61.383434295654</ele>
        <time>2012-01-18T11:52:04Z</time>
      </trkpt>
      <trkpt lat="43.62975" lon="7.08948">
        <ele>57.954566955566</ele>
        <time>2012-01-18T11:52:07Z</time>
      </trkpt>
      <trkpt lat="43.62976" lon="7.08944">
        <ele>56.565414428711</ele>
        <time>2012-01-18T11:52:08Z</time>
      </trkpt>
      <trkpt lat="43.62978" lon="7.08941">
        <ele>56.053890228271</ele>
        <time>2012-01-18T11:52:09Z</time>
      </trkpt>
      <trkpt lat="43.62979" lon="7.08938">
        <ele>55.478519439697</ele>
        <time>2012-01-18T11:52:11Z</time>
      </trkpt>
      <trkpt lat="43.62979" lon="7.08938">
        <ele>55.429580688477</ele>
        <time>2012-01-18T11:52:19Z</time>
      </trkpt>
      <trkpt lat="43.6298" lon="7.08935">
        <ele>54.92537689209</ele>
        <time>2012-01-18T11:53:05Z</time>
      </trkpt>
      <trkpt lat="43.62982" lon="7.08927">
        <ele>53.425971984863</ele>
        <time>2012-01-18T11:53:08Z</time>
      </trkpt>
      <trkpt lat="43.62986" lon="7.08908">
        <ele>49.450561523438</ele>
        <time>2012-01-18T11:53:13Z</time>
      </trkpt>
      <trkpt lat="43.62989" lon="7.08893">
        <ele>45.359870910645</ele>
        <time>2012-01-18T11:53:18Z</time>
      </trkpt>
      <trkpt lat="43.6299" lon="7.08889">
        <ele>44.432899475098</ele>
        <time>2012-01-18T11:53:20Z</time>
      </trkpt>
      <trkpt lat="43.62989" lon="7.08889">
        <ele>44.49641418457</ele>
        <time>2012-01-18T11:53:21Z</time>
      </trkpt>
      <trkpt lat="43.62984" lon="7.08894">
        <ele>45.986434936523</ele>
        <time>2012-01-18T11:53:26Z</time>
      </trkpt>
      <trkpt lat="43.62983" lon="7.08894">
        <ele>45.931503295898</ele>
        <time>2012-01-18T11:53:27Z</time>
      </trkpt>
      <trkpt lat="43.62982" lon="7.08894">
        <ele>46.007034301758</ele>
        <time>2012-01-18T11:53:30Z</time>
      </trkpt>
      <trkpt lat="43.62981" lon="7.08895">
        <ele>46.142646789551</ele>
        <time>2012-01-18T11:53:39Z</time>
      </trkpt>
      <trkpt lat="43.6298" lon="7.08891">
        <ele>45.330688476562</ele>
        <time>2012-01-18T11:53:47Z</time>
      </trkpt>
      <trkpt lat="43.62981" lon="7.08889">
        <ele>44.796821594238</ele>
        <time>2012-01-18T11:53:56Z</time>
      </trkpt>
      <trkpt lat="43.62987" lon="7.08885">
        <ele>43.850399017334</ele>
        <time>2012-01-18T11:54:30Z</time>
      </trkpt>
      <trkpt lat="43.62989" lon="7.08882">
        <ele>43.269214630127</ele>
        <time>2012-01-18T11:54:31Z</time>
      </trkpt>
      <trkpt lat="43.62998" lon="7.08873">
        <ele>41.667892456055</ele>
        <time>2012-01-18T11:54:36Z</time>
      </trkpt>
      <trkpt lat="43.62998" lon="7.08872">
        <ele>41.591136932373</ele>
        <time>2012-01-18T11:54:38Z</time>
      </trkpt>
      <trkpt lat="43.62997" lon="7.08869">
        <ele>41.138816833496</ele>
        <time>2012-01-18T11:54:40Z</time>
      </trkpt>
      <trkpt lat="43.62996" lon="7.08867">
        <ele>40.928779602051</ele>
        <time>2012-01-18T11:54:42Z</time>
      </trkpt>
      <trkpt lat="43.62994" lon="7.08866">
        <ele>40.673271179199</ele>
        <time>2012-01-18T11:54:45Z</time>
      </trkpt>
      <trkpt lat="43.62986" lon="7.08868">
        <ele>41.082733154297</ele>
        <time>2012-01-18T11:54:59Z</time>
      </trkpt>
      <trkpt lat="43.62984" lon="7.0887">
        <ele>41.487258911133</ele>
        <time>2012-01-18T11:55:14Z</time>
      </trkpt>
      <trkpt lat="43.62985" lon="7.08869">
        <ele>41.252700805664</ele>
        <time>2012-01-18T11:55:15Z</time>
      </trkpt>
      <trkpt lat="43.62984" lon="7.08852">
        <ele>40</ele>
        <time>2012-01-18T11:55:20Z</time>
      </trkpt>
      <trkpt lat="43.62977" lon="7.08831">
        <ele>40</ele>
        <time>2012-01-18T11:55:24Z</time>
      </trkpt>
      <trkpt lat="43.62969" lon="7.08798">
        <ele>40</ele>
        <time>2012-01-18T11:55:28Z</time>
      </trkpt>
      <trkpt lat="43.62967" lon="7.0879">
        <ele>40</ele>
        <time>2012-01-18T11:55:29Z</time>
      </trkpt>
      <trkpt lat="43.62966" lon="7.0877">
        <ele>40</ele>
        <time>2012-01-18T11:55:32Z</time>
      </trkpt>
      <trkpt lat="43.62967" lon="7.08756">
        <ele>40</ele>
        <time>2012-01-18T11:55:34Z</time>
      </trkpt>
      <trkpt lat="43.62972" lon="7.08748">
        <ele>40</ele>
        <time>2012-01-18T11:55:36Z</time>
      </trkpt>
      <trkpt lat="43.62981" lon="7.08744">
        <ele>40</ele>
        <time>2012-01-18T11:55:38Z</time>
      </trkpt>
      <trkpt lat="43.62985" lon="7.08743">
        <ele>40</ele>
        <time>2012-01-18T11:55:39Z</time>
      </trkpt>
      <trkpt lat="43.62989" lon="7.08741">
        <ele>40</ele>
        <time>2012-01-18T11:55:40Z</time>
      </trkpt>
      <trkpt lat="43.63004" lon="7.08734">
        <ele>40</ele>
        <time>2012-01-18T11:55:44Z</time>
      </trkpt>
      <trkpt lat="43.63006" lon="7.08732">
        <ele>40</ele>
        <time>2012-01-18T11:55:45Z</time>
      </trkpt>
      <trkpt lat="43.63024" lon="7.08721">
        <ele>40</ele>
        <time>2012-01-18T11:55:49Z</time>
      </trkpt>
      <trkpt lat="43.63034" lon="7.08713">
        <ele>40</ele>
        <time>2012-01-18T11:55:51Z</time>
      </trkpt>
      <trkpt lat="43.63041" lon="7.08702">
        <ele>40</ele>
        <time>2012-01-18T11:55:53Z</time>
      </trkpt>
      <trkpt lat="43.63063" lon="7.08676">
        <ele>40</ele>
        <time>2012-01-18T11:55:58Z</time>
      </trkpt>
      <trkpt lat="43.63068" lon="7.08671">
        <ele>40</ele>
        <time>2012-01-18T11:55:59Z</time>
      </trkpt>
      <trkpt lat="43.6308" lon="7.08661">
        <ele>40</ele>
        <time>2012-01-18T11:56:02Z</time>
      </trkpt>
      <trkpt lat="43.63083" lon="7.08657">
        <ele>40</ele>
        <time>2012-01-18T11:56:03Z</time>
      </trkpt>
      <trkpt lat="43.63083" lon="7.08651">
        <ele>40</ele>
        <time>2012-01-18T11:56:04Z</time>
      </trkpt>
      <trkpt lat="43.63086" lon="7.08639">
        <ele>40</ele>
        <time>2012-01-18T11:56:06Z</time>
      </trkpt>
      <trkpt lat="43.63086" lon="7.08632">
        <ele>40</ele>
        <time>2012-01-18T11:56:07Z</time>
      </trkpt>
      <trkpt lat="43.63086" lon="7.08617">
        <ele>40</ele>
        <time>2012-01-18T11:56:09Z</time>
      </trkpt>
      <trkpt lat="43.63086" lon="7.0861">
        <ele>40.012397766113</ele>
        <time>2012-01-18T11:56:10Z</time>
      </trkpt>
      <trkpt lat="43.63085" lon="7.08597">
        <ele>40.103458404541</ele>
        <time>2012-01-18T11:56:12Z</time>
      </trkpt>
      <trkpt lat="43.63085" lon="7.08594">
        <ele>40.123600006104</ele>
        <time>2012-01-18T11:56:14Z</time>
      </trkpt>
      <trkpt lat="43.63082" lon="7.0859">
        <ele>40</ele>
        <time>2012-01-18T11:56:26Z</time>
      </trkpt>
      <trkpt lat="43.63076" lon="7.08579">
        <ele>40</ele>
        <time>2012-01-18T11:57:22Z</time>
      </trkpt>
      <trkpt lat="43.63073" lon="7.0856">
        <ele>40</ele>
        <time>2012-01-18T11:57:27Z</time>
      </trkpt>
      <trkpt lat="43.6307" lon="7.08547">
        <ele>41.216346740723</ele>
        <time>2012-01-18T11:57:32Z</time>
      </trkpt>
      <trkpt lat="43.63066" lon="7.08526">
        <ele>43.525276184082</ele>
        <time>2012-01-18T11:57:38Z</time>
      </trkpt>
      <trkpt lat="43.6306" lon="7.08511">
        <ele>47.540935516357</ele>
        <time>2012-01-18T11:57:43Z</time>
      </trkpt>
      <trkpt lat="43.63054" lon="7.08496">
        <ele>51.162776947021</ele>
        <time>2012-01-18T11:57:49Z</time>
      </trkpt>
      <trkpt lat="43.63048" lon="7.08488">
        <ele>52.920093536377</ele>
        <time>2012-01-18T11:57:55Z</time>
      </trkpt>
      <trkpt lat="43.63039" lon="7.08479">
        <ele>54.25581741333</ele>
        <time>2012-01-18T11:58:01Z</time>
      </trkpt>
      <trkpt lat="43.63031" lon="7.08466">
        <ele>57.111801147461</ele>
        <time>2012-01-18T11:58:06Z</time>
      </trkpt>
      <trkpt lat="43.63022" lon="7.08455">
        <ele>57.659423828125</ele>
        <time>2012-01-18T11:58:11Z</time>
      </trkpt>
      <trkpt lat="43.63018" lon="7.08451">
        <ele>57.340133666992</ele>
        <time>2012-01-18T11:58:13Z</time>
      </trkpt>
      <trkpt lat="43.63015" lon="7.08448">
        <ele>57.278335571289</ele>
        <time>2012-01-18T11:58:15Z</time>
      </trkpt>
      <trkpt lat="43.63007" lon="7.08443">
        <ele>56.341602325439</ele>
        <time>2012-01-18T11:58:19Z</time>
      </trkpt>
      <trkpt lat="43.63" lon="7.0844">
        <ele>55.092945098877</ele>
        <time>2012-01-18T11:58:22Z</time>
      </trkpt>
      <trkpt lat="43.62999" lon="7.08438">
        <ele>54.982769012451</ele>
        <time>2012-01-18T11:58:23Z</time>
      </trkpt>
      <trkpt lat="43.62994" lon="7.08434">
        <ele>54.722202301025</ele>
        <time>2012-01-18T11:58:25Z</time>
      </trkpt>
      <trkpt lat="43.62977" lon="7.0843">
        <ele>51.275691986084</ele>
        <time>2012-01-18T11:58:31Z</time>
      </trkpt>
      <trkpt lat="43.62967" lon="7.08426">
        <ele>50.111938476562</ele>
        <time>2012-01-18T11:58:36Z</time>
      </trkpt>
      <trkpt lat="43.62951" lon="7.08417">
        <ele>49.287963867188</ele>
        <time>2012-01-18T11:58:42Z</time>
      </trkpt>
      <trkpt lat="43.6294" lon="7.08407">
        <ele>45.760536193848</ele>
        <time>2012-01-18T11:58:48Z</time>
      </trkpt>
      <trkpt lat="43.62934" lon="7.08397">
        <ele>43.406391143799</ele>
        <time>2012-01-18T11:58:53Z</time>
      </trkpt>
      <trkpt lat="43.62927" lon="7.08398">
        <ele>42.915336608887</ele>
        <time>2012-01-18T11:58:59Z</time>
      </trkpt>
      <trkpt lat="43.62926" lon="7.08401">
        <ele>43.286426544189</ele>
        <time>2012-01-18T11:59:10Z</time>
      </trkpt>
      <trkpt lat="43.62919" lon="7.0839">
        <ele>41.250961303711</ele>
        <time>2012-01-18T11:59:31Z</time>
      </trkpt>
      <trkpt lat="43.62917" lon="7.08387">
        <ele>40.968040466309</ele>
        <time>2012-01-18T11:59:35Z</time>
      </trkpt>
      <trkpt lat="43.62913" lon="7.08389">
        <ele>40.891075134277</ele>
        <time>2012-01-18T11:59:49Z</time>
      </trkpt>
      <trkpt lat="43.62917" lon="7.08393">
        <ele>41.467292785645</ele>
        <time>2012-01-18T12:00:07Z</time>
      </trkpt>
      <trkpt lat="43.62915" lon="7.08394">
        <ele>41.420932769775</ele>
        <time>2012-01-18T12:00:13Z</time>
      </trkpt>
      <trkpt lat="43.62906" lon="7.08402">
        <ele>41.509037017822</ele>
        <time>2012-01-18T12:00:20Z</time>
      </trkpt>
      <trkpt lat="43.62903" lon="7.08402">
        <ele>41.234146118164</ele>
        <time>2012-01-18T12:00:22Z</time>
      </trkpt>
      <trkpt lat="43.62897" lon="7.08398">
        <ele>40.574726104736</ele>
        <time>2012-01-18T12:00:25Z</time>
      </trkpt>
      <trkpt lat="43.62883" lon="7.08383">
        <ele>40</ele>
        <time>2012-01-18T12:00:31Z</time>
      </trkpt>
      <trkpt lat="43.62879" lon="7.08357">
        <ele>40</ele>
        <time>2012-01-18T12:00:36Z</time>
      </trkpt>
      <trkpt lat="43.62879" lon="7.0833">
        <ele>40</ele>
        <time>2012-01-18T12:00:41Z</time>
      </trkpt>
      <trkpt lat="43.62891" lon="7.08303">
        <ele>40</ele>
        <time>2012-01-18T12:00:47Z</time>
      </trkpt>
      <trkpt lat="43.629" lon="7.0828">
        <ele>40</ele>
        <time>2012-01-18T12:00:52Z</time>
      </trkpt>
      <trkpt lat="43.62905" lon="7.08262">
        <ele>40</ele>
        <time>2012-01-18T12:00:56Z</time>
      </trkpt>
      <trkpt lat="43.62913" lon="7.08242">
        <ele>40</ele>
        <time>2012-01-18T12:01:01Z</time>
      </trkpt>
      <trkpt lat="43.62918" lon="7.08217">
        <ele>40</ele>
        <time>2012-01-18T12:01:07Z</time>
      </trkpt>
      <trkpt lat="43.62926" lon="7.08195">
        <ele>40</ele>
        <time>2012-01-18T12:01:12Z</time>
      </trkpt>
      <trkpt lat="43.62931" lon="7.0817">
        <ele>40.949546813965</ele>
        <time>2012-01-18T12:01:18Z</time>
      </trkpt>
      <trkpt lat="43.62935" lon="7.08147">
        <ele>42.218933105469</ele>
        <time>2012-01-18T12:01:23Z</time>
      </trkpt>
      <trkpt lat="43.62938" lon="7.08125">
        <ele>43.006591796875</ele>
        <time>2012-01-18T12:01:29Z</time>
      </trkpt>
      <trkpt lat="43.62933" lon="7.08113">
        <ele>42.40234375</ele>
        <time>2012-01-18T12:01:34Z</time>
      </trkpt>
      <trkpt lat="43.62931" lon="7.08107">
        <ele>42.017822265625</ele>
        <time>2012-01-18T12:01:40Z</time>
      </trkpt>
      <trkpt lat="43.62931" lon="7.08082">
        <ele>42.161273956299</ele>
        <time>2012-01-18T12:02:29Z</time>
      </trkpt>
      <trkpt lat="43.62935" lon="7.08079">
        <ele>42.782451629639</ele>
        <time>2012-01-18T12:02:33Z</time>
      </trkpt>
      <trkpt lat="43.62936" lon="7.08076">
        <ele>42.980361938477</ele>
        <time>2012-01-18T12:02:35Z</time>
      </trkpt>
      <trkpt lat="43.62938" lon="7.08074">
        <ele>43.25276184082</ele>
        <time>2012-01-18T12:02:37Z</time>
      </trkpt>
      <trkpt lat="43.62938" lon="7.08074">
        <ele>43.324016571045</ele>
        <time>2012-01-18T12:02:38Z</time>
      </trkpt>
      <trkpt lat="43.62939" lon="7.08072">
        <ele>43.55001449585</ele>
        <time>2012-01-18T12:02:40Z</time>
      </trkpt>
      <trkpt lat="43.62938" lon="7.08074">
        <ele>43.308250427246</ele>
        <time>2012-01-18T12:02:48Z</time>
      </trkpt>
      <trkpt lat="43.62938" lon="7.08064">
        <ele>43.527591705322</ele>
        <time>2012-01-18T12:02:54Z</time>
      </trkpt>
      <trkpt lat="43.6293" lon="7.08046">
        <ele>42.45361328125</ele>
        <time>2012-01-18T12:03:00Z</time>
      </trkpt>
      <trkpt lat="43.62923" lon="7.08026">
        <ele>41.148986816406</ele>
        <time>2012-01-18T12:03:06Z</time>
      </trkpt>
      <trkpt lat="43.62914" lon="7.08007">
        <ele>40</ele>
        <time>2012-01-18T12:03:12Z</time>
      </trkpt>
      <trkpt lat="43.62899" lon="7.07988">
        <ele>40</ele>
        <time>2012-01-18T12:03:17Z</time>
      </trkpt>
      <trkpt lat="43.62886" lon="7.07971">
        <ele>40</ele>
        <time>2012-01-18T12:03:22Z</time>
      </trkpt>
      <trkpt lat="43.6287" lon="7.07955">
        <ele>40</ele>
        <time>2012-01-18T12:03:27Z</time>
      </trkpt>
      <trkpt lat="43.62856" lon="7.07935">
        <ele>41.365356445312</ele>
        <time>2012-01-18T12:03:32Z</time>
      </trkpt>
      <trkpt lat="43.62848" lon="7.07922">
        <ele>42.060440063477</ele>
        <time>2012-01-18T12:03:35Z</time>
      </trkpt>
      <trkpt lat="43.62843" lon="7.07913">
        <ele>42.673908233643</ele>
        <time>2012-01-18T12:03:37Z</time>
      </trkpt>
      <trkpt lat="43.62835" lon="7.07905">
        <ele>42.951198577881</ele>
        <time>2012-01-18T12:03:40Z</time>
      </trkpt>
      <trkpt lat="43.62833" lon="7.07905">
        <ele>42.546054840088</ele>
        <time>2012-01-18T12:03:41Z</time>
      </trkpt>
      <trkpt lat="43.62825" lon="7.07899">
        <ele>42.599510192871</ele>
        <time>2012-01-18T12:03:45Z</time>
      </trkpt>
      <trkpt lat="43.62819" lon="7.07897">
        <ele>42.095790863037</ele>
        <time>2012-01-18T12:03:47Z</time>
      </trkpt>
      <trkpt lat="43.62809" lon="7.07895">
        <ele>40.636123657227</ele>
        <time>2012-01-18T12:03:51Z</time>
      </trkpt>
      <trkpt lat="43.62789" lon="7.07889">
        <ele>40</ele>
        <time>2012-01-18T12:03:56Z</time>
      </trkpt>
      <trkpt lat="43.62775" lon="7.07888">
        <ele>40.789337158203</ele>
        <time>2012-01-18T12:04:01Z</time>
      </trkpt>
      <trkpt lat="43.62761" lon="7.07889">
        <ele>40</ele>
        <time>2012-01-18T12:04:06Z</time>
      </trkpt>
      <trkpt lat="43.62759" lon="7.07892">
        <ele>40</ele>
        <time>2012-01-18T12:04:08Z</time>
      </trkpt>
      <trkpt lat="43.62757" lon="7.07897">
        <ele>40</ele>
        <time>2012-01-18T12:04:10Z</time>
      </trkpt>
      <trkpt lat="43.62747" lon="7.07908">
        <ele>40</ele>
        <time>2012-01-18T12:04:14Z</time>
      </trkpt>
      <trkpt lat="43.62733" lon="7.07915">
        <ele>40</ele>
        <time>2012-01-18T12:04:20Z</time>
      </trkpt>
      <trkpt lat="43.6272" lon="7.07924">
        <ele>40</ele>
        <time>2012-01-18T12:04:26Z</time>
      </trkpt>
      <trkpt lat="43.62711" lon="7.07929">
        <ele>40</ele>
        <time>2012-01-18T12:04:31Z</time>
      </trkpt>
      <trkpt lat="43.62705" lon="7.07944">
        <ele>40</ele>
        <time>2012-01-18T12:04:36Z</time>
      </trkpt>
      <trkpt lat="43.62702" lon="7.0795">
        <ele>40</ele>
        <time>2012-01-18T12:04:38Z</time>
      </trkpt>
      <trkpt lat="43.62697" lon="7.0796">
        <ele>40</ele>
        <time>2012-01-18T12:04:41Z</time>
      </trkpt>
      <trkpt lat="43.62683" lon="7.07978">
        <ele>40</ele>
        <time>2012-01-18T12:04:47Z</time>
      </trkpt>
      <trkpt lat="43.6268" lon="7.07984">
        <ele>40</ele>
        <time>2012-01-18T12:04:49Z</time>
      </trkpt>
      <trkpt lat="43.62676" lon="7.07995">
        <ele>40</ele>
        <time>2012-01-18T12:04:51Z</time>
      </trkpt>
      <trkpt lat="43.62667" lon="7.08007">
        <ele>40</ele>
        <time>2012-01-18T12:04:56Z</time>
      </trkpt>
      <trkpt lat="43.62665" lon="7.08017">
        <ele>40</ele>
        <time>2012-01-18T12:05:02Z</time>
      </trkpt>
      <trkpt lat="43.62664" lon="7.0802">
        <ele>40</ele>
        <time>2012-01-18T12:05:07Z</time>
      </trkpt>
      <trkpt lat="43.62664" lon="7.0802">
        <ele>40</ele>
        <time>2012-01-18T12:05:08Z</time>
      </trkpt>
      <trkpt lat="43.62667" lon="7.08026">
        <ele>40</ele>
        <time>2012-01-18T12:05:13Z</time>
      </trkpt>
      <trkpt lat="43.62663" lon="7.08021">
        <ele>40</ele>
        <time>2012-01-18T12:05:17Z</time>
      </trkpt>
      <trkpt lat="43.62663" lon="7.08024">
        <ele>40</ele>
        <time>2012-01-18T12:05:20Z</time>
      </trkpt>
      <trkpt lat="43.62662" lon="7.08026">
        <ele>40</ele>
        <time>2012-01-18T12:05:21Z</time>
      </trkpt>
      <trkpt lat="43.6266" lon="7.08024">
        <ele>40</ele>
        <time>2012-01-18T12:05:23Z</time>
      </trkpt>
      <trkpt lat="43.62661" lon="7.08023">
        <ele>40</ele>
        <time>2012-01-18T12:05:27Z</time>
      </trkpt>
      <trkpt lat="43.62663" lon="7.08024">
        <ele>40</ele>
        <time>2012-01-18T12:05:30Z</time>
      </trkpt>
      <trkpt lat="43.62664" lon="7.08021">
        <ele>40</ele>
        <time>2012-01-18T12:05:42Z</time>
      </trkpt>
      <trkpt lat="43.62655" lon="7.08012">
        <ele>40</ele>
        <time>2012-01-18T12:05:58Z</time>
      </trkpt>
      <trkpt lat="43.62653" lon="7.08019">
        <ele>40</ele>
        <time>2012-01-18T12:06:30Z</time>
      </trkpt>
      <trkpt lat="43.6265" lon="7.08029">
        <ele>40</ele>
        <time>2012-01-18T12:06:34Z</time>
      </trkpt>
      <trkpt lat="43.62641" lon="7.08046">
        <ele>40</ele>
        <time>2012-01-18T12:06:39Z</time>
      </trkpt>
      <trkpt lat="43.62626" lon="7.08073">
        <ele>40</ele>
        <time>2012-01-18T12:06:44Z</time>
      </trkpt>
      <trkpt lat="43.62617" lon="7.08089">
        <ele>40</ele>
        <time>2012-01-18T12:06:47Z</time>
      </trkpt>
      <trkpt lat="43.62613" lon="7.08101">
        <ele>40</ele>
        <time>2012-01-18T12:06:49Z</time>
      </trkpt>
      <trkpt lat="43.62608" lon="7.0811">
        <ele>40</ele>
        <time>2012-01-18T12:06:51Z</time>
      </trkpt>
      <trkpt lat="43.626" lon="7.08119">
        <ele>40</ele>
        <time>2012-01-18T12:06:53Z</time>
      </trkpt>
      <trkpt lat="43.62598" lon="7.08122">
        <ele>40</ele>
        <time>2012-01-18T12:06:54Z</time>
      </trkpt>
      <trkpt lat="43.62589" lon="7.08139">
        <ele>40</ele>
        <time>2012-01-18T12:06:58Z</time>
      </trkpt>
      <trkpt lat="43.62585" lon="7.08144">
        <ele>40</ele>
        <time>2012-01-18T12:06:59Z</time>
      </trkpt>
      <trkpt lat="43.62568" lon="7.08167">
        <ele>40</ele>
        <time>2012-01-18T12:07:05Z</time>
      </trkpt>
      <trkpt lat="43.62564" lon="7.08169">
        <ele>40</ele>
        <time>2012-01-18T12:07:06Z</time>
      </trkpt>
      <trkpt lat="43.62553" lon="7.08167">
        <ele>40</ele>
        <time>2012-01-18T12:07:08Z</time>
      </trkpt>
      <trkpt lat="43.62536" lon="7.08154">
        <ele>40</ele>
        <time>2012-01-18T12:07:12Z</time>
      </trkpt>
      <trkpt lat="43.62531" lon="7.08138">
        <ele>40</ele>
        <time>2012-01-18T12:07:15Z</time>
      </trkpt>
      <trkpt lat="43.62528" lon="7.08131">
        <ele>40</ele>
        <time>2012-01-18T12:07:16Z</time>
      </trkpt>
      <trkpt lat="43.62521" lon="7.08116">
        <ele>40</ele>
        <time>2012-01-18T12:07:19Z</time>
      </trkpt>
      <trkpt lat="43.62519" lon="7.08107">
        <ele>40</ele>
        <time>2012-01-18T12:07:21Z</time>
      </trkpt>
      <trkpt lat="43.62515" lon="7.08087">
        <ele>40</ele>
        <time>2012-01-18T12:07:25Z</time>
      </trkpt>
      <trkpt lat="43.62506" lon="7.08063">
        <ele>40.865215301514</ele>
        <time>2012-01-18T12:07:30Z</time>
      </trkpt>
      <trkpt lat="43.625" lon="7.0804">
        <ele>44.521484375</ele>
        <time>2012-01-18T12:07:35Z</time>
      </trkpt>
      <trkpt lat="43.62494" lon="7.08027">
        <ele>46.368728637695</ele>
        <time>2012-01-18T12:07:38Z</time>
      </trkpt>
      <trkpt lat="43.62492" lon="7.08021">
        <ele>47.299011230469</ele>
        <time>2012-01-18T12:07:40Z</time>
      </trkpt>
      <trkpt lat="43.62489" lon="7.08017">
        <ele>46.777717590332</ele>
        <time>2012-01-18T12:07:44Z</time>
      </trkpt>
      <trkpt lat="43.6249" lon="7.08016">
        <ele>47.417385101318</ele>
        <time>2012-01-18T12:07:51Z</time>
      </trkpt>
      <trkpt lat="43.62487" lon="7.08011">
        <ele>47.307353973389</ele>
        <time>2012-01-18T12:07:56Z</time>
      </trkpt>
      <trkpt lat="43.62483" lon="7.0801">
        <ele>45.976470947266</ele>
        <time>2012-01-18T12:07:59Z</time>
      </trkpt>
      <trkpt lat="43.62481" lon="7.08009">
        <ele>45.484058380127</ele>
        <time>2012-01-18T12:08:00Z</time>
      </trkpt>
      <trkpt lat="43.62473" lon="7.0801">
        <ele>42.355033874512</ele>
        <time>2012-01-18T12:08:05Z</time>
      </trkpt>
      <trkpt lat="43.62476" lon="7.08011">
        <ele>43.018562316895</ele>
        <time>2012-01-18T12:08:10Z</time>
      </trkpt>
      <trkpt lat="43.62479" lon="7.08022">
        <ele>42.923931121826</ele>
        <time>2012-01-18T12:09:22Z</time>
      </trkpt>
      <trkpt lat="43.62478" lon="7.08028">
        <ele>41.601947784424</ele>
        <time>2012-01-18T12:09:27Z</time>
      </trkpt>
      <trkpt lat="43.62479" lon="7.0803">
        <ele>41.697639465332</ele>
        <time>2012-01-18T12:09:28Z</time>
      </trkpt>
      <trkpt lat="43.62479" lon="7.0804">
        <ele>41.1298828125</ele>
        <time>2012-01-18T12:09:32Z</time>
      </trkpt>
      <trkpt lat="43.62481" lon="7.08056">
        <ele>40</ele>
        <time>2012-01-18T12:09:39Z</time>
      </trkpt>
      <trkpt lat="43.6248" lon="7.08058">
        <ele>40</ele>
        <time>2012-01-18T12:09:40Z</time>
      </trkpt>
      <trkpt lat="43.62479" lon="7.08067">
        <ele>40</ele>
        <time>2012-01-18T12:09:44Z</time>
      </trkpt>
      <trkpt lat="43.62478" lon="7.08073">
        <ele>40</ele>
        <time>2012-01-18T12:09:47Z</time>
      </trkpt>
      <trkpt lat="43.62476" lon="7.08082">
        <ele>40</ele>
        <time>2012-01-18T12:09:51Z</time>
      </trkpt>
      <trkpt lat="43.62476" lon="7.08095">
        <ele>40</ele>
        <time>2012-01-18T12:09:57Z</time>
      </trkpt>
      <trkpt lat="43.62477" lon="7.081">
        <ele>40</ele>
        <time>2012-01-18T12:10:01Z</time>
      </trkpt>
      <trkpt lat="43.62478" lon="7.08101">
        <ele>40</ele>
        <time>2012-01-18T12:10:03Z</time>
      </trkpt>
      <trkpt lat="43.62478" lon="7.08104">
        <ele>40</ele>
        <time>2012-01-18T12:10:07Z</time>
      </trkpt>
      <trkpt lat="43.62479" lon="7.0811">
        <ele>40</ele>
        <time>2012-01-18T12:10:10Z</time>
      </trkpt>
      <trkpt lat="43.62479" lon="7.08124">
        <ele>40</ele>
        <time>2012-01-18T12:10:17Z</time>
      </trkpt>
      <trkpt lat="43.62476" lon="7.08137">
        <ele>40</ele>
        <time>2012-01-18T12:10:23Z</time>
      </trkpt>
      <trkpt lat="43.62475" lon="7.08137">
        <ele>40</ele>
        <time>2012-01-18T12:10:24Z</time>
      </trkpt>
      <trkpt lat="43.62471" lon="7.08135">
        <ele>40</ele>
        <time>2012-01-18T12:10:27Z</time>
      </trkpt>
      <trkpt lat="43.62469" lon="7.08133">
        <ele>40</ele>
        <time>2012-01-18T12:10:29Z</time>
      </trkpt>
      <trkpt lat="43.62465" lon="7.08119">
        <ele>40</ele>
        <time>2012-01-18T12:10:36Z</time>
      </trkpt>
      <trkpt lat="43.62461" lon="7.08105">
        <ele>40</ele>
        <time>2012-01-18T12:10:43Z</time>
      </trkpt>
      <trkpt lat="43.6245" lon="7.08098">
        <ele>40</ele>
        <time>2012-01-18T12:10:50Z</time>
      </trkpt>
      <trkpt lat="43.62441" lon="7.08094">
        <ele>40.096786499023</ele>
        <time>2012-01-18T12:10:58Z</time>
      </trkpt>
      <trkpt lat="43.62435" lon="7.08086">
        <ele>40.070316314697</ele>
        <time>2012-01-18T12:11:03Z</time>
      </trkpt>
      <trkpt lat="43.62426" lon="7.08075">
        <ele>40</ele>
        <time>2012-01-18T12:11:10Z</time>
      </trkpt>
      <trkpt lat="43.62416" lon="7.08061">
        <ele>40.077980041504</ele>
        <time>2012-01-18T12:11:19Z</time>
      </trkpt>
      <trkpt lat="43.62405" lon="7.08058">
        <ele>44.263725280762</ele>
        <time>2012-01-18T12:11:27Z</time>
      </trkpt>
      <trkpt lat="43.62392" lon="7.0806">
        <ele>49.272666931152</ele>
        <time>2012-01-18T12:11:35Z</time>
      </trkpt>
      <trkpt lat="43.62377" lon="7.08056">
        <ele>54.396923065186</ele>
        <time>2012-01-18T12:11:45Z</time>
      </trkpt>
      <trkpt lat="43.62367" lon="7.08052">
        <ele>57.782615661621</ele>
        <time>2012-01-18T12:11:52Z</time>
      </trkpt>
      <trkpt lat="43.62362" lon="7.08039">
        <ele>58.727252960205</ele>
        <time>2012-01-18T12:11:59Z</time>
      </trkpt>
      <trkpt lat="43.62358" lon="7.08032">
        <ele>60.291648864746</ele>
        <time>2012-01-18T12:12:04Z</time>
      </trkpt>
      <trkpt lat="43.62358" lon="7.08031">
        <ele>60.181266784668</ele>
        <time>2012-01-18T12:12:05Z</time>
      </trkpt>
      <trkpt lat="43.62353" lon="7.08019">
        <ele>62.803184509277</ele>
        <time>2012-01-18T12:12:12Z</time>
      </trkpt>
      <trkpt lat="43.62352" lon="7.08017">
        <ele>63.114265441895</ele>
        <time>2012-01-18T12:12:13Z</time>
      </trkpt>
      <trkpt lat="43.62348" lon="7.08003">
        <ele>64.471229553223</ele>
        <time>2012-01-18T12:12:20Z</time>
      </trkpt>
      <trkpt lat="43.62341" lon="7.07982">
        <ele>66.502990722656</ele>
        <time>2012-01-18T12:12:31Z</time>
      </trkpt>
      <trkpt lat="43.62336" lon="7.07967">
        <ele>67.038307189941</ele>
        <time>2012-01-18T12:12:39Z</time>
      </trkpt>
      <trkpt lat="43.62329" lon="7.07949">
        <ele>66.978248596191</ele>
        <time>2012-01-18T12:12:50Z</time>
      </trkpt>
      <trkpt lat="43.62325" lon="7.07941">
        <ele>67.404907226562</ele>
        <time>2012-01-18T12:12:55Z</time>
      </trkpt>
      <trkpt lat="43.62321" lon="7.07939">
        <ele>68.13720703125</ele>
        <time>2012-01-18T12:12:57Z</time>
      </trkpt>
      <trkpt lat="43.62313" lon="7.07929">
        <ele>69.703201293945</ele>
        <time>2012-01-18T12:13:05Z</time>
      </trkpt>
      <trkpt lat="43.62305" lon="7.07921">
        <ele>71.674934387207</ele>
        <time>2012-01-18T12:13:11Z</time>
      </trkpt>
      <trkpt lat="43.62296" lon="7.07912">
        <ele>73.199920654297</ele>
        <time>2012-01-18T12:13:18Z</time>
      </trkpt>
      <trkpt lat="43.62286" lon="7.07902">
        <ele>75.49552154541</ele>
        <time>2012-01-18T12:13:25Z</time>
      </trkpt>
      <trkpt lat="43.62277" lon="7.07895">
        <ele>78.264587402344</ele>
        <time>2012-01-18T12:13:31Z</time>
      </trkpt>
      <trkpt lat="43.62265" lon="7.07887">
        <ele>84.158294677734</ele>
        <time>2012-01-18T12:13:39Z</time>
      </trkpt>
      <trkpt lat="43.62253" lon="7.07877">
        <ele>88.872749328613</ele>
        <time>2012-01-18T12:13:47Z</time>
      </trkpt>
      <trkpt lat="43.62246" lon="7.07864">
        <ele>90.313385009766</ele>
        <time>2012-01-18T12:13:55Z</time>
      </trkpt>
      <trkpt lat="43.62236" lon="7.07849">
        <ele>94.826156616211</ele>
        <time>2012-01-18T12:14:04Z</time>
      </trkpt>
      <trkpt lat="43.62226" lon="7.07837">
        <ele>98.878875732422</ele>
        <time>2012-01-18T12:14:12Z</time>
      </trkpt>
      <trkpt lat="43.62217" lon="7.07828">
        <ele>102.70672607422</ele>
        <time>2012-01-18T12:14:18Z</time>
      </trkpt>
      <trkpt lat="43.6221" lon="7.07816">
        <ele>106.92980194092</ele>
        <time>2012-01-18T12:14:25Z</time>
      </trkpt>
      <trkpt lat="43.62209" lon="7.07806">
        <ele>108.60187530518</ele>
        <time>2012-01-18T12:14:30Z</time>
      </trkpt>
      <trkpt lat="43.62209" lon="7.07805">
        <ele>108.9921798706</ele>
        <time>2012-01-18T12:14:31Z</time>
      </trkpt>
      <trkpt lat="43.62206" lon="7.07792">
        <ele>113.42446136475</ele>
        <time>2012-01-18T12:14:37Z</time>
      </trkpt>
      <trkpt lat="43.62202" lon="7.07775">
        <ele>118.20231628418</ele>
        <time>2012-01-18T12:14:44Z</time>
      </trkpt>
      <trkpt lat="43.62195" lon="7.07759">
        <ele>119.90245056152</ele>
        <time>2012-01-18T12:14:50Z</time>
      </trkpt>
      <trkpt lat="43.62192" lon="7.07754">
        <ele>120</ele>
        <time>2012-01-18T12:14:53Z</time>
      </trkpt>
      <trkpt lat="43.62189" lon="7.07751">
        <ele>120</ele>
        <time>2012-01-18T12:14:55Z</time>
      </trkpt>
      <trkpt lat="43.62185" lon="7.07749">
        <ele>120</ele>
        <time>2012-01-18T12:14:58Z</time>
      </trkpt>
      <trkpt lat="43.62179" lon="7.0775">
        <ele>120</ele>
        <time>2012-01-18T12:15:01Z</time>
      </trkpt>
      <trkpt lat="43.62165" lon="7.07757">
        <ele>120</ele>
        <time>2012-01-18T12:15:09Z</time>
      </trkpt>
      <trkpt lat="43.62162" lon="7.0777">
        <ele>120</ele>
        <time>2012-01-18T12:15:15Z</time>
      </trkpt>
      <trkpt lat="43.62161" lon="7.07787">
        <ele>118.74221801758</ele>
        <time>2012-01-18T12:15:23Z</time>
      </trkpt>
      <trkpt lat="43.62161" lon="7.07792">
        <ele>117.96630859375</ele>
        <time>2012-01-18T12:15:28Z</time>
      </trkpt>
      <trkpt lat="43.6216" lon="7.07793">
        <ele>117.73971557617</ele>
        <time>2012-01-18T12:15:29Z</time>
      </trkpt>
      <trkpt lat="43.6216" lon="7.07801">
        <ele>116.70974731445</ele>
        <time>2012-01-18T12:15:35Z</time>
      </trkpt>
      <trkpt lat="43.6216" lon="7.07802">
        <ele>116.5380859375</ele>
        <time>2012-01-18T12:15:36Z</time>
      </trkpt>
      <trkpt lat="43.6216" lon="7.07805">
        <ele>116.14669799805</ele>
        <time>2012-01-18T12:15:38Z</time>
      </trkpt>
      <trkpt lat="43.62159" lon="7.07806">
        <ele>115.88771820068</ele>
        <time>2012-01-18T12:15:41Z</time>
      </trkpt>
      <trkpt lat="43.62158" lon="7.07807">
        <ele>115.83103942871</ele>
        <time>2012-01-18T12:15:42Z</time>
      </trkpt>
      <trkpt lat="43.62158" lon="7.07808">
        <ele>115.65976715088</ele>
        <time>2012-01-18T12:15:43Z</time>
      </trkpt>
      <trkpt lat="43.62158" lon="7.0781">
        <ele>115.34259796143</ele>
        <time>2012-01-18T12:15:45Z</time>
      </trkpt>
      <trkpt lat="43.6216" lon="7.0781">
        <ele>115.33926391602</ele>
        <time>2012-01-18T12:15:47Z</time>
      </trkpt>
      <trkpt lat="43.6216" lon="7.07808">
        <ele>115.60175323486</ele>
        <time>2012-01-18T12:15:49Z</time>
      </trkpt>
      <trkpt lat="43.6216" lon="7.07802">
        <ele>116.50375366211</ele>
        <time>2012-01-18T12:15:54Z</time>
      </trkpt>
      <trkpt lat="43.6216" lon="7.07802">
        <ele>116.5380859375</ele>
        <time>2012-01-18T12:15:55Z</time>
      </trkpt>
      <trkpt lat="43.62159" lon="7.07808">
        <ele>115.72653198242</ele>
        <time>2012-01-18T12:16:00Z</time>
      </trkpt>
      <trkpt lat="43.62158" lon="7.07813">
        <ele>115.05079650879</ele>
        <time>2012-01-18T12:16:05Z</time>
      </trkpt>
      <trkpt lat="43.62159" lon="7.07814">
        <ele>114.91356658935</ele>
        <time>2012-01-18T12:16:07Z</time>
      </trkpt>
      <trkpt lat="43.62159" lon="7.07811">
        <ele>115.32244110107</ele>
        <time>2012-01-18T12:16:47Z</time>
      </trkpt>
      <trkpt lat="43.62161" lon="7.07814">
        <ele>114.86580657959</ele>
        <time>2012-01-18T12:17:42Z</time>
      </trkpt>
      <trkpt lat="43.62163" lon="7.07816">
        <ele>114.57775878906</ele>
        <time>2012-01-18T12:18:03Z</time>
      </trkpt>
      <trkpt lat="43.62159" lon="7.07822">
        <ele>113.84870910644</ele>
        <time>2012-01-18T12:20:06Z</time>
      </trkpt>
      <trkpt lat="43.62155" lon="7.07837">
        <ele>111.56611633301</ele>
        <time>2012-01-18T12:20:15Z</time>
      </trkpt>
      <trkpt lat="43.62153" lon="7.07848">
        <ele>109.31015014648</ele>
        <time>2012-01-18T12:20:22Z</time>
      </trkpt>
      <trkpt lat="43.6215" lon="7.07863">
        <ele>106.88412475586</ele>
        <time>2012-01-18T12:20:29Z</time>
      </trkpt>
      <trkpt lat="43.62148" lon="7.07878">
        <ele>108.1887512207</ele>
        <time>2012-01-18T12:20:36Z</time>
      </trkpt>
      <trkpt lat="43.62148" lon="7.07891">
        <ele>109.16035461426</ele>
        <time>2012-01-18T12:20:43Z</time>
      </trkpt>
      <trkpt lat="43.62148" lon="7.07901">
        <ele>109.93283081055</ele>
        <time>2012-01-18T12:20:48Z</time>
      </trkpt>
      <trkpt lat="43.62149" lon="7.07905">
        <ele>110.05299377441</ele>
        <time>2012-01-18T12:20:50Z</time>
      </trkpt>
      <trkpt lat="43.62151" lon="7.07918">
        <ele>110.76103973389</ele>
        <time>2012-01-18T12:20:55Z</time>
      </trkpt>
      <trkpt lat="43.62151" lon="7.07924">
        <ele>111.47171783447</ele>
        <time>2012-01-18T12:20:58Z</time>
      </trkpt>
      <trkpt lat="43.62152" lon="7.07932">
        <ele>112.32144165039</ele>
        <time>2012-01-18T12:21:01Z</time>
      </trkpt>
      <trkpt lat="43.62152" lon="7.07946">
        <ele>113.71704864502</ele>
        <time>2012-01-18T12:21:06Z</time>
      </trkpt>
      <trkpt lat="43.62154" lon="7.07963">
        <ele>115.28775024414</ele>
        <time>2012-01-18T12:21:11Z</time>
      </trkpt>
      <trkpt lat="43.62159" lon="7.07982">
        <ele>116.51962280273</ele>
        <time>2012-01-18T12:21:17Z</time>
      </trkpt>
      <trkpt lat="43.62161" lon="7.07994">
        <ele>117.16850280762</ele>
        <time>2012-01-18T12:21:23Z</time>
      </trkpt>
      <trkpt lat="43.62161" lon="7.08004">
        <ele>118.02262878418</ele>
        <time>2012-01-18T12:21:28Z</time>
      </trkpt>
      <trkpt lat="43.62159" lon="7.08006">
        <ele>118.40113830566</ele>
        <time>2012-01-18T12:21:30Z</time>
      </trkpt>
      <trkpt lat="43.62157" lon="7.08008">
        <ele>118.80690765381</ele>
        <time>2012-01-18T12:21:33Z</time>
      </trkpt>
      <trkpt lat="43.62152" lon="7.08018">
        <ele>120.19853210449</ele>
        <time>2012-01-18T12:21:40Z</time>
      </trkpt>
      <trkpt lat="43.62149" lon="7.08024">
        <ele>120.90427398682</ele>
        <time>2012-01-18T12:21:44Z</time>
      </trkpt>
      <trkpt lat="43.62149" lon="7.08023">
        <ele>120.87584686279</ele>
        <time>2012-01-18T12:21:45Z</time>
      </trkpt>
      <trkpt lat="43.62146" lon="7.08022">
        <ele>121.06657409668</ele>
        <time>2012-01-18T12:22:03Z</time>
      </trkpt>
      <trkpt lat="43.6214" lon="7.08025">
        <ele>121.7236328125</ele>
        <time>2012-01-18T12:22:06Z</time>
      </trkpt>
      <trkpt lat="43.62128" lon="7.08029">
        <ele>123.62117004394</ele>
        <time>2012-01-18T12:22:13Z</time>
      </trkpt>
      <trkpt lat="43.62127" lon="7.0803">
        <ele>123.8717956543</ele>
        <time>2012-01-18T12:22:14Z</time>
      </trkpt>
      <trkpt lat="43.62118" lon="7.08032">
        <ele>125.29315185547</ele>
        <time>2012-01-18T12:22:19Z</time>
      </trkpt>
      <trkpt lat="43.62107" lon="7.08032">
        <ele>126.9308013916</ele>
        <time>2012-01-18T12:22:26Z</time>
      </trkpt>
      <trkpt lat="43.62089" lon="7.08037">
        <ele>129.85934448242</ele>
        <time>2012-01-18T12:22:35Z</time>
      </trkpt>
      <trkpt lat="43.62078" lon="7.08036">
        <ele>131.21569824219</ele>
        <time>2012-01-18T12:22:42Z</time>
      </trkpt>
      <trkpt lat="43.62069" lon="7.08036">
        <ele>132.19760131836</ele>
        <time>2012-01-18T12:22:49Z</time>
      </trkpt>
      <trkpt lat="43.62057" lon="7.08041">
        <ele>133.78375244141</ele>
        <time>2012-01-18T12:22:55Z</time>
      </trkpt>
      <trkpt lat="43.62051" lon="7.08041">
        <ele>134.63403320312</ele>
        <time>2012-01-18T12:23:02Z</time>
      </trkpt>
      <trkpt lat="43.62041" lon="7.08043">
        <ele>136.14465332031</ele>
        <time>2012-01-18T12:23:10Z</time>
      </trkpt>
      <trkpt lat="43.62038" lon="7.08043">
        <ele>136.62187194824</ele>
        <time>2012-01-18T12:23:17Z</time>
      </trkpt>
      <trkpt lat="43.62027" lon="7.0805">
        <ele>138.62786865234</ele>
        <time>2012-01-18T12:23:56Z</time>
      </trkpt>
      <trkpt lat="43.62018" lon="7.08048">
        <ele>138.97288513184</ele>
        <time>2012-01-18T12:24:03Z</time>
      </trkpt>
      <trkpt lat="43.62012" lon="7.08048">
        <ele>139.32772827148</ele>
        <time>2012-01-18T12:24:10Z</time>
      </trkpt>
      <trkpt lat="43.62009" lon="7.08047">
        <ele>139.45744323731</ele>
        <time>2012-01-18T12:24:13Z</time>
      </trkpt>
      <trkpt lat="43.62007" lon="7.08048">
        <ele>139.6261138916</ele>
        <time>2012-01-18T12:24:15Z</time>
      </trkpt>
      <trkpt lat="43.62004" lon="7.08048">
        <ele>139.75326538086</ele>
        <time>2012-01-18T12:24:17Z</time>
      </trkpt>
      <trkpt lat="43.62004" lon="7.08047">
        <ele>139.78437805176</ele>
        <time>2012-01-18T12:24:18Z</time>
      </trkpt>
      <trkpt lat="43.62001" lon="7.08044">
        <ele>139.93067932129</ele>
        <time>2012-01-18T12:24:21Z</time>
      </trkpt>
      <trkpt lat="43.61992" lon="7.08038">
        <ele>140</ele>
        <time>2012-01-18T12:24:27Z</time>
      </trkpt>
      <trkpt lat="43.61985" lon="7.08034">
        <ele>140</ele>
        <time>2012-01-18T12:24:31Z</time>
      </trkpt>
      <trkpt lat="43.61974" lon="7.08033">
        <ele>140</ele>
        <time>2012-01-18T12:24:37Z</time>
      </trkpt>
      <trkpt lat="43.61972" lon="7.08031">
        <ele>140</ele>
        <time>2012-01-18T12:24:45Z</time>
      </trkpt>
      <trkpt lat="43.61972" lon="7.08026">
        <ele>139.99960327148</ele>
        <time>2012-01-18T12:25:30Z</time>
      </trkpt>
      <trkpt lat="43.61975" lon="7.08021">
        <ele>139.9775390625</ele>
        <time>2012-01-18T12:25:33Z</time>
      </trkpt>
      <trkpt lat="43.61977" lon="7.08015">
        <ele>139.92234802246</ele>
        <time>2012-01-18T12:25:35Z</time>
      </trkpt>
      <trkpt lat="43.61982" lon="7.08006">
        <ele>139.73350524902</ele>
        <time>2012-01-18T12:25:38Z</time>
      </trkpt>
      <trkpt lat="43.61987" lon="7.07979">
        <ele>138.72142028809</ele>
        <time>2012-01-18T12:25:44Z</time>
      </trkpt>
      <trkpt lat="43.61993" lon="7.07947">
        <ele>134.99990844727</ele>
        <time>2012-01-18T12:25:50Z</time>
      </trkpt>
      <trkpt lat="43.61999" lon="7.07913">
        <ele>130.82431030273</ele>
        <time>2012-01-18T12:25:55Z</time>
      </trkpt>
      <trkpt lat="43.61999" lon="7.07905">
        <ele>130.3024597168</ele>
        <time>2012-01-18T12:25:56Z</time>
      </trkpt>
      <trkpt lat="43.61998" lon="7.07894">
        <ele>129.54371643066</ele>
        <time>2012-01-18T12:25:59Z</time>
      </trkpt>
      <trkpt lat="43.61998" lon="7.07894">
        <ele>129.51625061035</ele>
        <time>2012-01-18T12:26:00Z</time>
      </trkpt>
      <trkpt lat="43.61998" lon="7.07892">
        <ele>129.39265441894</ele>
        <time>2012-01-18T12:26:02Z</time>
      </trkpt>
      <trkpt lat="43.61998" lon="7.0789">
        <ele>129.33085632324</ele>
        <time>2012-01-18T12:26:04Z</time>
      </trkpt>
      <trkpt lat="43.61995" lon="7.07892">
        <ele>129.80807495117</ele>
        <time>2012-01-18T12:26:07Z</time>
      </trkpt>
      <trkpt lat="43.61997" lon="7.07893">
        <ele>129.60208129883</ele>
        <time>2012-01-18T12:26:10Z</time>
      </trkpt>
      <trkpt lat="43.61996" lon="7.0788">
        <ele>128.51205444336</ele>
        <time>2012-01-18T12:26:13Z</time>
      </trkpt>
      <trkpt lat="43.61985" lon="7.07855">
        <ele>126.86924743652</ele>
        <time>2012-01-18T12:26:17Z</time>
      </trkpt>
      <trkpt lat="43.61977" lon="7.07839">
        <ele>126.12252044678</ele>
        <time>2012-01-18T12:26:19Z</time>
      </trkpt>
      <trkpt lat="43.61967" lon="7.07822">
        <ele>125.55296325684</ele>
        <time>2012-01-18T12:26:21Z</time>
      </trkpt>
      <trkpt lat="43.61947" lon="7.0779">
        <ele>124.07089996338</ele>
        <time>2012-01-18T12:26:24Z</time>
      </trkpt>
      <trkpt lat="43.61912" lon="7.07735">
        <ele>121.51130676269</ele>
        <time>2012-01-18T12:26:29Z</time>
      </trkpt>
      <trkpt lat="43.6189" lon="7.07702">
        <ele>118.12288665772</ele>
        <time>2012-01-18T12:26:33Z</time>
      </trkpt>
      <trkpt lat="43.61887" lon="7.07695">
        <ele>117.00084686279</ele>
        <time>2012-01-18T12:26:34Z</time>
      </trkpt>
      <trkpt lat="43.61879" lon="7.07682">
        <ele>115.88466644287</ele>
        <time>2012-01-18T12:26:36Z</time>
      </trkpt>
      <trkpt lat="43.61874" lon="7.07677">
        <ele>115.52370452881</ele>
        <time>2012-01-18T12:26:37Z</time>
      </trkpt>
      <trkpt lat="43.61867" lon="7.07672">
        <ele>115.24726104736</ele>
        <time>2012-01-18T12:26:40Z</time>
      </trkpt>
      <trkpt lat="43.61864" lon="7.07673">
        <ele>115.26485443115</ele>
        <time>2012-01-18T12:26:43Z</time>
      </trkpt>
      <trkpt lat="43.61866" lon="7.07679">
        <ele>115.50920104981</ele>
        <time>2012-01-18T12:26:46Z</time>
      </trkpt>
      <trkpt lat="43.61868" lon="7.07669">
        <ele>115.12387084961</ele>
        <time>2012-01-18T12:26:49Z</time>
      </trkpt>
      <trkpt lat="43.61872" lon="7.07656">
        <ele>113.79672241211</ele>
        <time>2012-01-18T12:26:52Z</time>
      </trkpt>
      <trkpt lat="43.61873" lon="7.0765">
        <ele>113.23023986816</ele>
        <time>2012-01-18T12:26:53Z</time>
      </trkpt>
      <trkpt lat="43.61878" lon="7.07632">
        <ele>111.24240112305</ele>
        <time>2012-01-18T12:26:58Z</time>
      </trkpt>
      <trkpt lat="43.6188" lon="7.07623">
        <ele>110.33087921143</ele>
        <time>2012-01-18T12:27:00Z</time>
      </trkpt>
      <trkpt lat="43.61881" lon="7.07618">
        <ele>109.74894714356</ele>
        <time>2012-01-18T12:27:02Z</time>
      </trkpt>
      <trkpt lat="43.6188" lon="7.07618">
        <ele>109.73864746094</ele>
        <time>2012-01-18T12:27:05Z</time>
      </trkpt>
      <trkpt lat="43.6188" lon="7.07626">
        <ele>110.63471984863</ele>
        <time>2012-01-18T12:27:13Z</time>
      </trkpt>
      <trkpt lat="43.61879" lon="7.07628">
        <ele>110.80466461182</ele>
        <time>2012-01-18T12:27:14Z</time>
      </trkpt>
      <trkpt lat="43.61876" lon="7.07628">
        <ele>110.80981445312</ele>
        <time>2012-01-18T12:27:17Z</time>
      </trkpt>
      <trkpt lat="43.61875" lon="7.07627">
        <ele>110.69651794434</ele>
        <time>2012-01-18T12:27:18Z</time>
      </trkpt>
      <trkpt lat="43.61864" lon="7.07622">
        <ele>110.17123413086</ele>
        <time>2012-01-18T12:27:22Z</time>
      </trkpt>
      <trkpt lat="43.61842" lon="7.07613">
        <ele>109.17216491699</ele>
        <time>2012-01-18T12:27:27Z</time>
      </trkpt>
      <trkpt lat="43.61792" lon="7.07592">
        <ele>107.59729003906</ele>
        <time>2012-01-18T12:27:38Z</time>
      </trkpt>
      <trkpt lat="43.61781" lon="7.07586">
        <ele>107.18530273438</ele>
        <time>2012-01-18T12:27:42Z</time>
      </trkpt>
      <trkpt lat="43.61779" lon="7.07585">
        <ele>107.10977172852</ele>
        <time>2012-01-18T12:27:43Z</time>
      </trkpt>
      <trkpt lat="43.61769" lon="7.07582">
        <ele>106.86081695557</ele>
        <time>2012-01-18T12:27:46Z</time>
      </trkpt>
      <trkpt lat="43.61756" lon="7.07589">
        <ele>107.37413024902</ele>
        <time>2012-01-18T12:27:50Z</time>
      </trkpt>
      <trkpt lat="43.6174" lon="7.07594">
        <ele>107.61460876465</ele>
        <time>2012-01-18T12:27:54Z</time>
      </trkpt>
      <trkpt lat="43.61719" lon="7.0761">
        <ele>107.8517074585</ele>
        <time>2012-01-18T12:27:59Z</time>
      </trkpt>
      <trkpt lat="43.61711" lon="7.07617">
        <ele>108.26345825195</ele>
        <time>2012-01-18T12:28:01Z</time>
      </trkpt>
      <trkpt lat="43.61703" lon="7.07633">
        <ele>109.61786651611</ele>
        <time>2012-01-18T12:28:04Z</time>
      </trkpt>
      <trkpt lat="43.61699" lon="7.07647">
        <ele>110.46625518799</ele>
        <time>2012-01-18T12:28:07Z</time>
      </trkpt>
      <trkpt lat="43.61698" lon="7.07651">
        <ele>110.56066894531</ele>
        <time>2012-01-18T12:28:08Z</time>
      </trkpt>
      <trkpt lat="43.61697" lon="7.07654">
        <ele>110.6121673584</ele>
        <time>2012-01-18T12:28:09Z</time>
      </trkpt>
      <trkpt lat="43.61694" lon="7.07659">
        <ele>110.73748016357</ele>
        <time>2012-01-18T12:28:13Z</time>
      </trkpt>
      <trkpt lat="43.61692" lon="7.0767">
        <ele>111.03273773193</ele>
        <time>2012-01-18T12:28:18Z</time>
      </trkpt>
      <trkpt lat="43.6169" lon="7.07673">
        <ele>111.0739364624</ele>
        <time>2012-01-18T12:28:22Z</time>
      </trkpt>
      <trkpt lat="43.61689" lon="7.07682">
        <ele>111.37434387207</ele>
        <time>2012-01-18T12:28:28Z</time>
      </trkpt>
      <trkpt lat="43.61683" lon="7.0769">
        <ele>111.41039276123</ele>
        <time>2012-01-18T12:28:32Z</time>
      </trkpt>
      <trkpt lat="43.6168" lon="7.07697">
        <ele>112.08334350586</ele>
        <time>2012-01-18T12:28:34Z</time>
      </trkpt>
      <trkpt lat="43.61679" lon="7.07709">
        <ele>114.62736511231</ele>
        <time>2012-01-18T12:28:37Z</time>
      </trkpt>
      <trkpt lat="43.61672" lon="7.07744">
        <ele>118.76603698731</ele>
        <time>2012-01-18T12:28:45Z</time>
      </trkpt>
      <trkpt lat="43.61666" lon="7.07765">
        <ele>119.47593688965</ele>
        <time>2012-01-18T12:28:50Z</time>
      </trkpt>
      <trkpt lat="43.6166" lon="7.07795">
        <ele>120.17459869385</ele>
        <time>2012-01-18T12:28:57Z</time>
      </trkpt>
      <trkpt lat="43.61664" lon="7.07811">
        <ele>121.03462219238</ele>
        <time>2012-01-18T12:29:01Z</time>
      </trkpt>
      <trkpt lat="43.61658" lon="7.07818">
        <ele>120.82691192627</ele>
        <time>2012-01-18T12:29:04Z</time>
      </trkpt>
      <trkpt lat="43.61651" lon="7.07828">
        <ele>120.66898345947</ele>
        <time>2012-01-18T12:29:07Z</time>
      </trkpt>
      <trkpt lat="43.6164" lon="7.07839">
        <ele>120.07777404785</ele>
        <time>2012-01-18T12:29:11Z</time>
      </trkpt>
      <trkpt lat="43.61638" lon="7.07843">
        <ele>119.92724609375</ele>
        <time>2012-01-18T12:29:12Z</time>
      </trkpt>
      <trkpt lat="43.61626" lon="7.07863">
        <ele>119.19099426269</ele>
        <time>2012-01-18T12:29:17Z</time>
      </trkpt>
      <trkpt lat="43.61604" lon="7.07899">
        <ele>119.75512695312</ele>
        <time>2012-01-18T12:29:25Z</time>
      </trkpt>
      <trkpt lat="43.616" lon="7.07915">
        <ele>119.61779785156</ele>
        <time>2012-01-18T12:29:28Z</time>
      </trkpt>
      <trkpt lat="43.61599" lon="7.0792">
        <ele>119.67524719238</ele>
        <time>2012-01-18T12:29:29Z</time>
      </trkpt>
      <trkpt lat="43.61598" lon="7.07931">
        <ele>120.03916931152</ele>
        <time>2012-01-18T12:29:31Z</time>
      </trkpt>
      <trkpt lat="43.61597" lon="7.07936">
        <ele>120.17821502685</ele>
        <time>2012-01-18T12:29:32Z</time>
      </trkpt>
      <trkpt lat="43.61596" lon="7.07945">
        <ele>120.4854888916</ele>
        <time>2012-01-18T12:29:34Z</time>
      </trkpt>
      <trkpt lat="43.61594" lon="7.07955">
        <ele>120.75328063965</ele>
        <time>2012-01-18T12:29:36Z</time>
      </trkpt>
      <trkpt lat="43.61599" lon="7.07958">
        <ele>121.0657043457</ele>
        <time>2012-01-18T12:29:39Z</time>
      </trkpt>
      <trkpt lat="43.61596" lon="7.07959">
        <ele>120.99188995361</ele>
        <time>2012-01-18T12:29:42Z</time>
      </trkpt>
      <trkpt lat="43.61599" lon="7.0797">
        <ele>121.50344085693</ele>
        <time>2012-01-18T12:29:45Z</time>
      </trkpt>
      <trkpt lat="43.61602" lon="7.07979">
        <ele>121.92057800293</ele>
        <time>2012-01-18T12:29:49Z</time>
      </trkpt>
      <trkpt lat="43.61605" lon="7.07989">
        <ele>122.38234710693</ele>
        <time>2012-01-18T12:29:54Z</time>
      </trkpt>
      <trkpt lat="43.61606" lon="7.07992">
        <ele>122.52310943603</ele>
        <time>2012-01-18T12:29:55Z</time>
      </trkpt>
      <trkpt lat="43.61604" lon="7.08015">
        <ele>123.25438690185</ele>
        <time>2012-01-18T12:30:01Z</time>
      </trkpt>
      <trkpt lat="43.6159" lon="7.08024">
        <ele>123.09302520752</ele>
        <time>2012-01-18T12:30:04Z</time>
      </trkpt>
      <trkpt lat="43.61567" lon="7.08038">
        <ele>122.17102050781</ele>
        <time>2012-01-18T12:30:08Z</time>
      </trkpt>
      <trkpt lat="43.6155" lon="7.08054">
        <ele>121.5306930542</ele>
        <time>2012-01-18T12:30:11Z</time>
      </trkpt>
      <trkpt lat="43.61546" lon="7.08063">
        <ele>121.53759002685</ele>
        <time>2012-01-18T12:30:12Z</time>
      </trkpt>
      <trkpt lat="43.61542" lon="7.08094">
        <ele>122.005859375</ele>
        <time>2012-01-18T12:30:16Z</time>
      </trkpt>
      <trkpt lat="43.61544" lon="7.08106">
        <ele>122.17065429688</ele>
        <time>2012-01-18T12:30:18Z</time>
      </trkpt>
      <trkpt lat="43.61548" lon="7.08119">
        <ele>122.2373123169</ele>
        <time>2012-01-18T12:30:20Z</time>
      </trkpt>
      <trkpt lat="43.61551" lon="7.08126">
        <ele>122.20934295654</ele>
        <time>2012-01-18T12:30:21Z</time>
      </trkpt>
      <trkpt lat="43.61568" lon="7.08178">
        <ele>122.43676757812</ele>
        <time>2012-01-18T12:30:28Z</time>
      </trkpt>
      <trkpt lat="43.61589" lon="7.08242">
        <ele>121.41126251221</ele>
        <time>2012-01-18T12:30:35Z</time>
      </trkpt>
      <trkpt lat="43.61602" lon="7.08305">
        <ele>120.00708007812</ele>
        <time>2012-01-18T12:30:41Z</time>
      </trkpt>
      <trkpt lat="43.61597" lon="7.08336">
        <ele>117.86710357666</ele>
        <time>2012-01-18T12:30:44Z</time>
      </trkpt>
      <trkpt lat="43.61594" lon="7.08345">
        <ele>117.67686462402</ele>
        <time>2012-01-18T12:30:45Z</time>
      </trkpt>
      <trkpt lat="43.61591" lon="7.08355">
        <ele>117.43658447266</ele>
        <time>2012-01-18T12:30:46Z</time>
      </trkpt>
      <trkpt lat="43.61585" lon="7.08372">
        <ele>117.81369018555</ele>
        <time>2012-01-18T12:30:48Z</time>
      </trkpt>
      <trkpt lat="43.61575" lon="7.08405">
        <ele>117.28778839111</ele>
        <time>2012-01-18T12:30:52Z</time>
      </trkpt>
      <trkpt lat="43.61574" lon="7.08414">
        <ele>117.07019805908</ele>
        <time>2012-01-18T12:30:53Z</time>
      </trkpt>
      <trkpt lat="43.61567" lon="7.08459">
        <ele>115.69063568115</ele>
        <time>2012-01-18T12:30:59Z</time>
      </trkpt>
      <trkpt lat="43.61559" lon="7.08483">
        <ele>114.75420379639</ele>
        <time>2012-01-18T12:31:03Z</time>
      </trkpt>
      <trkpt lat="43.61553" lon="7.085">
        <ele>113.90536499023</ele>
        <time>2012-01-18T12:31:06Z</time>
      </trkpt>
      <trkpt lat="43.61542" lon="7.08535">
        <ele>112.86301422119</ele>
        <time>2012-01-18T12:31:12Z</time>
      </trkpt>
      <trkpt lat="43.61533" lon="7.08568">
        <ele>111.72187805176</ele>
        <time>2012-01-18T12:31:18Z</time>
      </trkpt>
      <trkpt lat="43.61523" lon="7.08597">
        <ele>110.35373687744</ele>
        <time>2012-01-18T12:31:24Z</time>
      </trkpt>
      <trkpt lat="43.6152" lon="7.08606">
        <ele>109.90913391113</ele>
        <time>2012-01-18T12:31:26Z</time>
      </trkpt>
      <trkpt lat="43.61509" lon="7.0863">
        <ele>109.33563232422</ele>
        <time>2012-01-18T12:31:33Z</time>
      </trkpt>
      <trkpt lat="43.61498" lon="7.08647">
        <ele>108.63805389404</ele>
        <time>2012-01-18T12:31:39Z</time>
      </trkpt>
      <trkpt lat="43.61496" lon="7.08657">
        <ele>108.19860076904</ele>
        <time>2012-01-18T12:31:42Z</time>
      </trkpt>
      <trkpt lat="43.61497" lon="7.08661">
        <ele>108.11448669434</ele>
        <time>2012-01-18T12:31:43Z</time>
      </trkpt>
      <trkpt lat="43.61507" lon="7.08668">
        <ele>108.21061706543</ele>
        <time>2012-01-18T12:31:47Z</time>
      </trkpt>
      <trkpt lat="43.61518" lon="7.08665">
        <ele>108.72388458252</ele>
        <time>2012-01-18T12:31:52Z</time>
      </trkpt>
      <trkpt lat="43.6152" lon="7.08665">
        <ele>108.78911590576</ele>
        <time>2012-01-18T12:31:53Z</time>
      </trkpt>
    </trkseg>
  </trk>
</gpx>